<?xml version="1.0" encoding="UTF-8" standalone="no" ?>
<gpx xmlns="http://www.topografix.com/GPX/1/1" xmlns:xsi="http://www.w3.org/2001/XMLSchema-instance" xsi:schemaLocation="http://www.topografix.com/GPX/1/1 http://www.topografix.com/GPX/1/1/gpx.xsd" version="1.1" creator="VisuGPX - https://www.visugpx.com">
  <metadata>
    <name>Forêt de bord (à gauche de la nationale)</name>
    <desc><![CDATA[Rando environ 10 kms]]></desc>
  </metadata>
  <trk>
    <name><![CDATA[track]]></name>
    <trkseg>
      <trkpt lat="49.28903" lon="1.1585">
        <ele>3</ele>
        <time>2014-06-08T11:54:34Z</time>
      </trkpt>
      <trkpt lat="49.28903" lon="1.15851">
        <ele>3</ele>
        <time>2014-06-08T11:54:35Z</time>
      </trkpt>
      <trkpt lat="49.28909" lon="1.15853">
        <ele>3</ele>
        <time>2014-06-08T11:54:48Z</time>
      </trkpt>
      <trkpt lat="49.28903" lon="1.15856">
        <ele>3</ele>
        <time>2014-06-08T11:55:07Z</time>
      </trkpt>
      <trkpt lat="49.28906" lon="1.15849">
        <ele>3</ele>
        <time>2014-06-08T11:55:15Z</time>
      </trkpt>
      <trkpt lat="49.28911" lon="1.15828">
        <ele>2</ele>
        <time>2014-06-08T11:55:28Z</time>
      </trkpt>
      <trkpt lat="49.28912" lon="1.15825">
        <ele>2</ele>
        <time>2014-06-08T11:55:30Z</time>
      </trkpt>
      <trkpt lat="49.28912" lon="1.15815">
        <ele>7</ele>
        <time>2014-06-08T11:55:35Z</time>
      </trkpt>
      <trkpt lat="49.28912" lon="1.1581">
        <ele>15</ele>
        <time>2014-06-08T11:55:38Z</time>
      </trkpt>
      <trkpt lat="49.28912" lon="1.15807">
        <ele>20</ele>
        <time>2014-06-08T11:55:40Z</time>
      </trkpt>
      <trkpt lat="49.28914" lon="1.158">
        <ele>26</ele>
        <time>2014-06-08T11:55:43Z</time>
      </trkpt>
      <trkpt lat="49.28914" lon="1.15796">
        <ele>29</ele>
        <time>2014-06-08T11:55:45Z</time>
      </trkpt>
      <trkpt lat="49.28915" lon="1.15794">
        <ele>33</ele>
        <time>2014-06-08T11:55:47Z</time>
      </trkpt>
      <trkpt lat="49.28915" lon="1.15792">
        <ele>36</ele>
        <time>2014-06-08T11:55:49Z</time>
      </trkpt>
      <trkpt lat="49.28915" lon="1.15789">
        <ele>40</ele>
        <time>2014-06-08T11:55:52Z</time>
      </trkpt>
      <trkpt lat="49.28916" lon="1.15786">
        <ele>44</ele>
        <time>2014-06-08T11:55:55Z</time>
      </trkpt>
      <trkpt lat="49.28918" lon="1.15783">
        <ele>47</ele>
        <time>2014-06-08T11:55:58Z</time>
      </trkpt>
      <trkpt lat="49.28919" lon="1.15783">
        <ele>50</ele>
        <time>2014-06-08T11:56:01Z</time>
      </trkpt>
      <trkpt lat="49.2892" lon="1.15782">
        <ele>54</ele>
        <time>2014-06-08T11:56:05Z</time>
      </trkpt>
      <trkpt lat="49.2892" lon="1.15775">
        <ele>57</ele>
        <time>2014-06-08T11:56:10Z</time>
      </trkpt>
      <trkpt lat="49.2892" lon="1.15771">
        <ele>58</ele>
        <time>2014-06-08T11:56:11Z</time>
      </trkpt>
      <trkpt lat="49.28922" lon="1.15756">
        <ele>60</ele>
        <time>2014-06-08T11:56:15Z</time>
      </trkpt>
      <trkpt lat="49.28925" lon="1.15748">
        <ele>61</ele>
        <time>2014-06-08T11:56:17Z</time>
      </trkpt>
      <trkpt lat="49.28931" lon="1.15728">
        <ele>63</ele>
        <time>2014-06-08T11:56:29Z</time>
      </trkpt>
      <trkpt lat="49.28936" lon="1.15726">
        <ele>64</ele>
        <time>2014-06-08T11:56:43Z</time>
      </trkpt>
      <trkpt lat="49.28936" lon="1.15722">
        <ele>64</ele>
        <time>2014-06-08T11:56:56Z</time>
      </trkpt>
      <trkpt lat="49.28936" lon="1.1571">
        <ele>64</ele>
        <time>2014-06-08T11:57:01Z</time>
      </trkpt>
      <trkpt lat="49.28937" lon="1.15689">
        <ele>63</ele>
        <time>2014-06-08T11:57:12Z</time>
      </trkpt>
      <trkpt lat="49.28939" lon="1.15668">
        <ele>62</ele>
        <time>2014-06-08T11:57:22Z</time>
      </trkpt>
      <trkpt lat="49.28943" lon="1.15654">
        <ele>62</ele>
        <time>2014-06-08T11:57:33Z</time>
      </trkpt>
      <trkpt lat="49.28943" lon="1.15651">
        <ele>62</ele>
        <time>2014-06-08T11:57:35Z</time>
      </trkpt>
      <trkpt lat="49.28944" lon="1.15639">
        <ele>62</ele>
        <time>2014-06-08T11:57:42Z</time>
      </trkpt>
      <trkpt lat="49.28945" lon="1.15634">
        <ele>62</ele>
        <time>2014-06-08T11:57:45Z</time>
      </trkpt>
      <trkpt lat="49.28947" lon="1.15611">
        <ele>61</ele>
        <time>2014-06-08T11:57:54Z</time>
      </trkpt>
      <trkpt lat="49.28948" lon="1.15593">
        <ele>61</ele>
        <time>2014-06-08T11:58:03Z</time>
      </trkpt>
      <trkpt lat="49.28952" lon="1.15571">
        <ele>61</ele>
        <time>2014-06-08T11:58:15Z</time>
      </trkpt>
      <trkpt lat="49.28954" lon="1.15556">
        <ele>61</ele>
        <time>2014-06-08T11:58:22Z</time>
      </trkpt>
      <trkpt lat="49.28956" lon="1.15545">
        <ele>61</ele>
        <time>2014-06-08T11:58:27Z</time>
      </trkpt>
      <trkpt lat="49.28958" lon="1.15532">
        <ele>61</ele>
        <time>2014-06-08T11:58:35Z</time>
      </trkpt>
      <trkpt lat="49.2896" lon="1.15528">
        <ele>61</ele>
        <time>2014-06-08T11:58:44Z</time>
      </trkpt>
      <trkpt lat="49.28959" lon="1.15525">
        <ele>61</ele>
        <time>2014-06-08T11:58:55Z</time>
      </trkpt>
      <trkpt lat="49.28959" lon="1.15519">
        <ele>61</ele>
        <time>2014-06-08T11:59:06Z</time>
      </trkpt>
      <trkpt lat="49.28962" lon="1.15511">
        <ele>61</ele>
        <time>2014-06-08T11:59:11Z</time>
      </trkpt>
      <trkpt lat="49.28963" lon="1.155">
        <ele>61</ele>
        <time>2014-06-08T11:59:16Z</time>
      </trkpt>
      <trkpt lat="49.28963" lon="1.15492">
        <ele>61</ele>
        <time>2014-06-08T11:59:19Z</time>
      </trkpt>
      <trkpt lat="49.28965" lon="1.15477">
        <ele>61</ele>
        <time>2014-06-08T11:59:27Z</time>
      </trkpt>
      <trkpt lat="49.28964" lon="1.15464">
        <ele>61</ele>
        <time>2014-06-08T11:59:32Z</time>
      </trkpt>
      <trkpt lat="49.28966" lon="1.15458">
        <ele>61</ele>
        <time>2014-06-08T11:59:36Z</time>
      </trkpt>
      <trkpt lat="49.28966" lon="1.15446">
        <ele>62</ele>
        <time>2014-06-08T11:59:42Z</time>
      </trkpt>
      <trkpt lat="49.28968" lon="1.15441">
        <ele>61</ele>
        <time>2014-06-08T11:59:46Z</time>
      </trkpt>
      <trkpt lat="49.2897" lon="1.15433">
        <ele>62</ele>
        <time>2014-06-08T11:59:52Z</time>
      </trkpt>
      <trkpt lat="49.28973" lon="1.1542">
        <ele>62</ele>
        <time>2014-06-08T11:59:58Z</time>
      </trkpt>
      <trkpt lat="49.28975" lon="1.15401">
        <ele>62</ele>
        <time>2014-06-08T12:00:08Z</time>
      </trkpt>
      <trkpt lat="49.28975" lon="1.15398">
        <ele>62</ele>
        <time>2014-06-08T12:00:10Z</time>
      </trkpt>
      <trkpt lat="49.28976" lon="1.15378">
        <ele>62</ele>
        <time>2014-06-08T12:00:19Z</time>
      </trkpt>
      <trkpt lat="49.2898" lon="1.15354">
        <ele>62</ele>
        <time>2014-06-08T12:00:31Z</time>
      </trkpt>
      <trkpt lat="49.28981" lon="1.1535">
        <ele>61</ele>
        <time>2014-06-08T12:00:33Z</time>
      </trkpt>
      <trkpt lat="49.28982" lon="1.15347">
        <ele>62</ele>
        <time>2014-06-08T12:00:35Z</time>
      </trkpt>
      <trkpt lat="49.28982" lon="1.15344">
        <ele>61</ele>
        <time>2014-06-08T12:00:47Z</time>
      </trkpt>
      <trkpt lat="49.28981" lon="1.15343">
        <ele>62</ele>
        <time>2014-06-08T12:00:59Z</time>
      </trkpt>
      <trkpt lat="49.28982" lon="1.15336">
        <ele>62</ele>
        <time>2014-06-08T12:01:10Z</time>
      </trkpt>
      <trkpt lat="49.28985" lon="1.15326">
        <ele>62</ele>
        <time>2014-06-08T12:01:17Z</time>
      </trkpt>
      <trkpt lat="49.28985" lon="1.15324">
        <ele>61</ele>
        <time>2014-06-08T12:01:18Z</time>
      </trkpt>
      <trkpt lat="49.28985" lon="1.15319">
        <ele>61</ele>
        <time>2014-06-08T12:01:21Z</time>
      </trkpt>
      <trkpt lat="49.28985" lon="1.15316">
        <ele>61</ele>
        <time>2014-06-08T12:01:23Z</time>
      </trkpt>
      <trkpt lat="49.28987" lon="1.15305">
        <ele>61</ele>
        <time>2014-06-08T12:01:29Z</time>
      </trkpt>
      <trkpt lat="49.28987" lon="1.153">
        <ele>61</ele>
        <time>2014-06-08T12:01:33Z</time>
      </trkpt>
      <trkpt lat="49.2899" lon="1.1529">
        <ele>61</ele>
        <time>2014-06-08T12:01:38Z</time>
      </trkpt>
      <trkpt lat="49.28992" lon="1.15279">
        <ele>61</ele>
        <time>2014-06-08T12:01:44Z</time>
      </trkpt>
      <trkpt lat="49.28992" lon="1.15267">
        <ele>61</ele>
        <time>2014-06-08T12:01:49Z</time>
      </trkpt>
      <trkpt lat="49.28992" lon="1.15249">
        <ele>60</ele>
        <time>2014-06-08T12:01:59Z</time>
      </trkpt>
      <trkpt lat="49.28993" lon="1.15245">
        <ele>60</ele>
        <time>2014-06-08T12:02:01Z</time>
      </trkpt>
      <trkpt lat="49.28996" lon="1.15224">
        <ele>60</ele>
        <time>2014-06-08T12:02:10Z</time>
      </trkpt>
      <trkpt lat="49.28997" lon="1.15211">
        <ele>60</ele>
        <time>2014-06-08T12:02:15Z</time>
      </trkpt>
      <trkpt lat="49.28997" lon="1.15197">
        <ele>60</ele>
        <time>2014-06-08T12:02:22Z</time>
      </trkpt>
      <trkpt lat="49.29001" lon="1.15176">
        <ele>59</ele>
        <time>2014-06-08T12:02:33Z</time>
      </trkpt>
      <trkpt lat="49.29002" lon="1.15161">
        <ele>59</ele>
        <time>2014-06-08T12:02:39Z</time>
      </trkpt>
      <trkpt lat="49.29001" lon="1.15151">
        <ele>59</ele>
        <time>2014-06-08T12:02:43Z</time>
      </trkpt>
      <trkpt lat="49.29004" lon="1.15131">
        <ele>58</ele>
        <time>2014-06-08T12:02:53Z</time>
      </trkpt>
      <trkpt lat="49.29006" lon="1.15127">
        <ele>58</ele>
        <time>2014-06-08T12:02:56Z</time>
      </trkpt>
      <trkpt lat="49.29007" lon="1.15121">
        <ele>58</ele>
        <time>2014-06-08T12:02:59Z</time>
      </trkpt>
      <trkpt lat="49.29008" lon="1.15115">
        <ele>58</ele>
        <time>2014-06-08T12:03:02Z</time>
      </trkpt>
      <trkpt lat="49.29011" lon="1.15102">
        <ele>58</ele>
        <time>2014-06-08T12:03:08Z</time>
      </trkpt>
      <trkpt lat="49.29009" lon="1.15096">
        <ele>57</ele>
        <time>2014-06-08T12:03:11Z</time>
      </trkpt>
      <trkpt lat="49.29009" lon="1.15084">
        <ele>57</ele>
        <time>2014-06-08T12:03:16Z</time>
      </trkpt>
      <trkpt lat="49.2901" lon="1.15074">
        <ele>57</ele>
        <time>2014-06-08T12:03:21Z</time>
      </trkpt>
      <trkpt lat="49.29014" lon="1.15058">
        <ele>56</ele>
        <time>2014-06-08T12:03:32Z</time>
      </trkpt>
      <trkpt lat="49.29016" lon="1.1505">
        <ele>56</ele>
        <time>2014-06-08T12:03:35Z</time>
      </trkpt>
      <trkpt lat="49.29019" lon="1.15041">
        <ele>56</ele>
        <time>2014-06-08T12:03:39Z</time>
      </trkpt>
      <trkpt lat="49.29018" lon="1.15024">
        <ele>55</ele>
        <time>2014-06-08T12:03:46Z</time>
      </trkpt>
      <trkpt lat="49.29018" lon="1.15018">
        <ele>55</ele>
        <time>2014-06-08T12:03:49Z</time>
      </trkpt>
      <trkpt lat="49.29018" lon="1.15006">
        <ele>55</ele>
        <time>2014-06-08T12:03:55Z</time>
      </trkpt>
      <trkpt lat="49.29019" lon="1.14998">
        <ele>55</ele>
        <time>2014-06-08T12:04:01Z</time>
      </trkpt>
      <trkpt lat="49.2902" lon="1.14993">
        <ele>55</ele>
        <time>2014-06-08T12:04:04Z</time>
      </trkpt>
      <trkpt lat="49.29022" lon="1.14977">
        <ele>54</ele>
        <time>2014-06-08T12:04:12Z</time>
      </trkpt>
      <trkpt lat="49.29023" lon="1.14959">
        <ele>54</ele>
        <time>2014-06-08T12:04:21Z</time>
      </trkpt>
      <trkpt lat="49.29023" lon="1.1495">
        <ele>54</ele>
        <time>2014-06-08T12:04:26Z</time>
      </trkpt>
      <trkpt lat="49.29026" lon="1.14944">
        <ele>54</ele>
        <time>2014-06-08T12:04:30Z</time>
      </trkpt>
      <trkpt lat="49.29027" lon="1.14936">
        <ele>54</ele>
        <time>2014-06-08T12:04:34Z</time>
      </trkpt>
      <trkpt lat="49.29031" lon="1.14919">
        <ele>54</ele>
        <time>2014-06-08T12:04:44Z</time>
      </trkpt>
      <trkpt lat="49.29034" lon="1.14902">
        <ele>55</ele>
        <time>2014-06-08T12:04:52Z</time>
      </trkpt>
      <trkpt lat="49.29036" lon="1.14881">
        <ele>55</ele>
        <time>2014-06-08T12:05:01Z</time>
      </trkpt>
      <trkpt lat="49.29036" lon="1.14866">
        <ele>55</ele>
        <time>2014-06-08T12:05:12Z</time>
      </trkpt>
      <trkpt lat="49.29038" lon="1.14855">
        <ele>55</ele>
        <time>2014-06-08T12:05:18Z</time>
      </trkpt>
      <trkpt lat="49.29041" lon="1.14829">
        <ele>55</ele>
        <time>2014-06-08T12:05:31Z</time>
      </trkpt>
      <trkpt lat="49.29041" lon="1.14821">
        <ele>55</ele>
        <time>2014-06-08T12:05:37Z</time>
      </trkpt>
      <trkpt lat="49.29041" lon="1.14817">
        <ele>55</ele>
        <time>2014-06-08T12:05:39Z</time>
      </trkpt>
      <trkpt lat="49.29045" lon="1.14804">
        <ele>55</ele>
        <time>2014-06-08T12:05:45Z</time>
      </trkpt>
      <trkpt lat="49.29047" lon="1.14782">
        <ele>55</ele>
        <time>2014-06-08T12:05:55Z</time>
      </trkpt>
      <trkpt lat="49.29047" lon="1.14776">
        <ele>55</ele>
        <time>2014-06-08T12:05:58Z</time>
      </trkpt>
      <trkpt lat="49.2905" lon="1.14762">
        <ele>55</ele>
        <time>2014-06-08T12:06:04Z</time>
      </trkpt>
      <trkpt lat="49.29051" lon="1.14752">
        <ele>55</ele>
        <time>2014-06-08T12:06:08Z</time>
      </trkpt>
      <trkpt lat="49.29052" lon="1.14734">
        <ele>54</ele>
        <time>2014-06-08T12:06:17Z</time>
      </trkpt>
      <trkpt lat="49.29052" lon="1.14729">
        <ele>54</ele>
        <time>2014-06-08T12:06:19Z</time>
      </trkpt>
      <trkpt lat="49.29052" lon="1.14715">
        <ele>54</ele>
        <time>2014-06-08T12:06:24Z</time>
      </trkpt>
      <trkpt lat="49.29052" lon="1.14711">
        <ele>54</ele>
        <time>2014-06-08T12:06:27Z</time>
      </trkpt>
      <trkpt lat="49.29053" lon="1.14692">
        <ele>54</ele>
        <time>2014-06-08T12:06:35Z</time>
      </trkpt>
      <trkpt lat="49.29057" lon="1.14676">
        <ele>53</ele>
        <time>2014-06-08T12:06:44Z</time>
      </trkpt>
      <trkpt lat="49.29061" lon="1.14665">
        <ele>53</ele>
        <time>2014-06-08T12:06:51Z</time>
      </trkpt>
      <trkpt lat="49.29063" lon="1.14641">
        <ele>53</ele>
        <time>2014-06-08T12:07:03Z</time>
      </trkpt>
      <trkpt lat="49.29064" lon="1.14635">
        <ele>52</ele>
        <time>2014-06-08T12:07:07Z</time>
      </trkpt>
      <trkpt lat="49.29065" lon="1.14613">
        <ele>52</ele>
        <time>2014-06-08T12:07:16Z</time>
      </trkpt>
      <trkpt lat="49.29067" lon="1.14602">
        <ele>51</ele>
        <time>2014-06-08T12:07:22Z</time>
      </trkpt>
      <trkpt lat="49.2907" lon="1.14595">
        <ele>51</ele>
        <time>2014-06-08T12:07:27Z</time>
      </trkpt>
      <trkpt lat="49.29071" lon="1.14587">
        <ele>51</ele>
        <time>2014-06-08T12:07:31Z</time>
      </trkpt>
      <trkpt lat="49.29072" lon="1.14582">
        <ele>51</ele>
        <time>2014-06-08T12:07:34Z</time>
      </trkpt>
      <trkpt lat="49.29072" lon="1.14577">
        <ele>51</ele>
        <time>2014-06-08T12:07:36Z</time>
      </trkpt>
      <trkpt lat="49.29072" lon="1.14573">
        <ele>50</ele>
        <time>2014-06-08T12:07:38Z</time>
      </trkpt>
      <trkpt lat="49.29073" lon="1.14571">
        <ele>50</ele>
        <time>2014-06-08T12:07:40Z</time>
      </trkpt>
      <trkpt lat="49.29075" lon="1.14563">
        <ele>50</ele>
        <time>2014-06-08T12:07:44Z</time>
      </trkpt>
      <trkpt lat="49.29074" lon="1.14542">
        <ele>50</ele>
        <time>2014-06-08T12:07:53Z</time>
      </trkpt>
      <trkpt lat="49.29074" lon="1.14539">
        <ele>50</ele>
        <time>2014-06-08T12:07:54Z</time>
      </trkpt>
      <trkpt lat="49.29074" lon="1.14524">
        <ele>50</ele>
        <time>2014-06-08T12:08:04Z</time>
      </trkpt>
      <trkpt lat="49.29075" lon="1.1452">
        <ele>50</ele>
        <time>2014-06-08T12:08:06Z</time>
      </trkpt>
      <trkpt lat="49.29079" lon="1.14501">
        <ele>49</ele>
        <time>2014-06-08T12:08:18Z</time>
      </trkpt>
      <trkpt lat="49.29079" lon="1.145">
        <ele>49</ele>
        <time>2014-06-08T12:08:19Z</time>
      </trkpt>
      <trkpt lat="49.29081" lon="1.14491">
        <ele>49</ele>
        <time>2014-06-08T12:08:25Z</time>
      </trkpt>
      <trkpt lat="49.29084" lon="1.14475">
        <ele>49</ele>
        <time>2014-06-08T12:08:34Z</time>
      </trkpt>
      <trkpt lat="49.29088" lon="1.14446">
        <ele>49</ele>
        <time>2014-06-08T12:08:48Z</time>
      </trkpt>
      <trkpt lat="49.2909" lon="1.14427">
        <ele>49</ele>
        <time>2014-06-08T12:08:59Z</time>
      </trkpt>
      <trkpt lat="49.29092" lon="1.14403">
        <ele>49</ele>
        <time>2014-06-08T12:09:11Z</time>
      </trkpt>
      <trkpt lat="49.29092" lon="1.14391">
        <ele>49</ele>
        <time>2014-06-08T12:09:17Z</time>
      </trkpt>
      <trkpt lat="49.29096" lon="1.14373">
        <ele>48</ele>
        <time>2014-06-08T12:09:27Z</time>
      </trkpt>
      <trkpt lat="49.29098" lon="1.14369">
        <ele>48</ele>
        <time>2014-06-08T12:09:29Z</time>
      </trkpt>
      <trkpt lat="49.29101" lon="1.14356">
        <ele>48</ele>
        <time>2014-06-08T12:09:38Z</time>
      </trkpt>
      <trkpt lat="49.29102" lon="1.14349">
        <ele>48</ele>
        <time>2014-06-08T12:09:42Z</time>
      </trkpt>
      <trkpt lat="49.29102" lon="1.14337">
        <ele>48</ele>
        <time>2014-06-08T12:09:47Z</time>
      </trkpt>
      <trkpt lat="49.29106" lon="1.14321">
        <ele>48</ele>
        <time>2014-06-08T12:09:55Z</time>
      </trkpt>
      <trkpt lat="49.29105" lon="1.14297">
        <ele>48</ele>
        <time>2014-06-08T12:10:06Z</time>
      </trkpt>
      <trkpt lat="49.29104" lon="1.14276">
        <ele>48</ele>
        <time>2014-06-08T12:10:17Z</time>
      </trkpt>
      <trkpt lat="49.29106" lon="1.14256">
        <ele>48</ele>
        <time>2014-06-08T12:10:28Z</time>
      </trkpt>
      <trkpt lat="49.29112" lon="1.14233">
        <ele>49</ele>
        <time>2014-06-08T12:10:42Z</time>
      </trkpt>
      <trkpt lat="49.29114" lon="1.14206">
        <ele>49</ele>
        <time>2014-06-08T12:10:55Z</time>
      </trkpt>
      <trkpt lat="49.29117" lon="1.14183">
        <ele>50</ele>
        <time>2014-06-08T12:11:06Z</time>
      </trkpt>
      <trkpt lat="49.29119" lon="1.1416">
        <ele>51</ele>
        <time>2014-06-08T12:11:19Z</time>
      </trkpt>
      <trkpt lat="49.29121" lon="1.14139">
        <ele>51</ele>
        <time>2014-06-08T12:11:30Z</time>
      </trkpt>
      <trkpt lat="49.29123" lon="1.14113">
        <ele>52</ele>
        <time>2014-06-08T12:11:42Z</time>
      </trkpt>
      <trkpt lat="49.29126" lon="1.14093">
        <ele>53</ele>
        <time>2014-06-08T12:11:53Z</time>
      </trkpt>
      <trkpt lat="49.29125" lon="1.14072">
        <ele>53</ele>
        <time>2014-06-08T12:12:05Z</time>
      </trkpt>
      <trkpt lat="49.29125" lon="1.1407">
        <ele>53</ele>
        <time>2014-06-08T12:12:06Z</time>
      </trkpt>
      <trkpt lat="49.29131" lon="1.1405">
        <ele>54</ele>
        <time>2014-06-08T12:12:19Z</time>
      </trkpt>
      <trkpt lat="49.29133" lon="1.14015">
        <ele>55</ele>
        <time>2014-06-08T12:12:36Z</time>
      </trkpt>
      <trkpt lat="49.29135" lon="1.13994">
        <ele>55</ele>
        <time>2014-06-08T12:12:47Z</time>
      </trkpt>
      <trkpt lat="49.29134" lon="1.1397">
        <ele>56</ele>
        <time>2014-06-08T12:12:59Z</time>
      </trkpt>
      <trkpt lat="49.29129" lon="1.13945">
        <ele>56</ele>
        <time>2014-06-08T12:13:11Z</time>
      </trkpt>
      <trkpt lat="49.29125" lon="1.13934">
        <ele>56</ele>
        <time>2014-06-08T12:13:20Z</time>
      </trkpt>
      <trkpt lat="49.29125" lon="1.13933">
        <ele>56</ele>
        <time>2014-06-08T12:13:21Z</time>
      </trkpt>
      <trkpt lat="49.29117" lon="1.13925">
        <ele>56</ele>
        <time>2014-06-08T12:13:31Z</time>
      </trkpt>
      <trkpt lat="49.29115" lon="1.13922">
        <ele>56</ele>
        <time>2014-06-08T12:13:33Z</time>
      </trkpt>
      <trkpt lat="49.29111" lon="1.13916">
        <ele>56</ele>
        <time>2014-06-08T12:13:39Z</time>
      </trkpt>
      <trkpt lat="49.291" lon="1.13904">
        <ele>57</ele>
        <time>2014-06-08T12:13:49Z</time>
      </trkpt>
      <trkpt lat="49.29099" lon="1.13903">
        <ele>57</ele>
        <time>2014-06-08T12:14:04Z</time>
      </trkpt>
      <trkpt lat="49.29097" lon="1.13902">
        <ele>57</ele>
        <time>2014-06-08T12:14:20Z</time>
      </trkpt>
      <trkpt lat="49.2909" lon="1.13896">
        <ele>57</ele>
        <time>2014-06-08T12:14:25Z</time>
      </trkpt>
      <trkpt lat="49.29085" lon="1.13889">
        <ele>57</ele>
        <time>2014-06-08T12:14:31Z</time>
      </trkpt>
      <trkpt lat="49.29084" lon="1.13887">
        <ele>57</ele>
        <time>2014-06-08T12:14:33Z</time>
      </trkpt>
      <trkpt lat="49.2908" lon="1.13881">
        <ele>57</ele>
        <time>2014-06-08T12:14:41Z</time>
      </trkpt>
      <trkpt lat="49.29072" lon="1.1387">
        <ele>58</ele>
        <time>2014-06-08T12:14:50Z</time>
      </trkpt>
      <trkpt lat="49.29064" lon="1.13867">
        <ele>58</ele>
        <time>2014-06-08T12:14:56Z</time>
      </trkpt>
      <trkpt lat="49.29055" lon="1.13855">
        <ele>58</ele>
        <time>2014-06-08T12:15:07Z</time>
      </trkpt>
      <trkpt lat="49.29054" lon="1.13854">
        <ele>58</ele>
        <time>2014-06-08T12:15:08Z</time>
      </trkpt>
      <trkpt lat="49.29049" lon="1.13848">
        <ele>58</ele>
        <time>2014-06-08T12:15:14Z</time>
      </trkpt>
      <trkpt lat="49.29043" lon="1.13843">
        <ele>58</ele>
        <time>2014-06-08T12:15:18Z</time>
      </trkpt>
      <trkpt lat="49.29035" lon="1.13834">
        <ele>58</ele>
        <time>2014-06-08T12:15:25Z</time>
      </trkpt>
      <trkpt lat="49.29025" lon="1.13819">
        <ele>58</ele>
        <time>2014-06-08T12:15:37Z</time>
      </trkpt>
      <trkpt lat="49.29023" lon="1.13816">
        <ele>58</ele>
        <time>2014-06-08T12:15:39Z</time>
      </trkpt>
      <trkpt lat="49.29018" lon="1.13808">
        <ele>59</ele>
        <time>2014-06-08T12:15:45Z</time>
      </trkpt>
      <trkpt lat="49.29013" lon="1.138">
        <ele>59</ele>
        <time>2014-06-08T12:15:51Z</time>
      </trkpt>
      <trkpt lat="49.29009" lon="1.13797">
        <ele>59</ele>
        <time>2014-06-08T12:15:55Z</time>
      </trkpt>
      <trkpt lat="49.28999" lon="1.13787">
        <ele>59</ele>
        <time>2014-06-08T12:16:03Z</time>
      </trkpt>
      <trkpt lat="49.28991" lon="1.13777">
        <ele>59</ele>
        <time>2014-06-08T12:16:12Z</time>
      </trkpt>
      <trkpt lat="49.28982" lon="1.13767">
        <ele>59</ele>
        <time>2014-06-08T12:16:21Z</time>
      </trkpt>
      <trkpt lat="49.28972" lon="1.13755">
        <ele>60</ele>
        <time>2014-06-08T12:16:32Z</time>
      </trkpt>
      <trkpt lat="49.28968" lon="1.13749">
        <ele>60</ele>
        <time>2014-06-08T12:16:36Z</time>
      </trkpt>
      <trkpt lat="49.28965" lon="1.13746">
        <ele>60</ele>
        <time>2014-06-08T12:16:38Z</time>
      </trkpt>
      <trkpt lat="49.28952" lon="1.13735">
        <ele>61</ele>
        <time>2014-06-08T12:16:50Z</time>
      </trkpt>
      <trkpt lat="49.28944" lon="1.13725">
        <ele>60</ele>
        <time>2014-06-08T12:16:59Z</time>
      </trkpt>
      <trkpt lat="49.28932" lon="1.13712">
        <ele>60</ele>
        <time>2014-06-08T12:17:09Z</time>
      </trkpt>
      <trkpt lat="49.28932" lon="1.1371">
        <ele>60</ele>
        <time>2014-06-08T12:17:20Z</time>
      </trkpt>
      <trkpt lat="49.28928" lon="1.13703">
        <ele>60</ele>
        <time>2014-06-08T12:17:28Z</time>
      </trkpt>
      <trkpt lat="49.28919" lon="1.13691">
        <ele>60</ele>
        <time>2014-06-08T12:17:39Z</time>
      </trkpt>
      <trkpt lat="49.28918" lon="1.13689">
        <ele>59</ele>
        <time>2014-06-08T12:17:49Z</time>
      </trkpt>
      <trkpt lat="49.28914" lon="1.13683">
        <ele>59</ele>
        <time>2014-06-08T12:17:53Z</time>
      </trkpt>
      <trkpt lat="49.28911" lon="1.13679">
        <ele>59</ele>
        <time>2014-06-08T12:17:55Z</time>
      </trkpt>
      <trkpt lat="49.28909" lon="1.13676">
        <ele>59</ele>
        <time>2014-06-08T12:17:57Z</time>
      </trkpt>
      <trkpt lat="49.28898" lon="1.13662">
        <ele>59</ele>
        <time>2014-06-08T12:18:09Z</time>
      </trkpt>
      <trkpt lat="49.28891" lon="1.13655">
        <ele>58</ele>
        <time>2014-06-08T12:18:18Z</time>
      </trkpt>
      <trkpt lat="49.28887" lon="1.13651">
        <ele>58</ele>
        <time>2014-06-08T12:18:21Z</time>
      </trkpt>
      <trkpt lat="49.28881" lon="1.13648">
        <ele>58</ele>
        <time>2014-06-08T12:18:25Z</time>
      </trkpt>
      <trkpt lat="49.28871" lon="1.13637">
        <ele>57</ele>
        <time>2014-06-08T12:18:33Z</time>
      </trkpt>
      <trkpt lat="49.28864" lon="1.13627">
        <ele>57</ele>
        <time>2014-06-08T12:18:43Z</time>
      </trkpt>
      <trkpt lat="49.2886" lon="1.13622">
        <ele>56</ele>
        <time>2014-06-08T12:18:46Z</time>
      </trkpt>
      <trkpt lat="49.28857" lon="1.13618">
        <ele>56</ele>
        <time>2014-06-08T12:18:49Z</time>
      </trkpt>
      <trkpt lat="49.28846" lon="1.13605">
        <ele>56</ele>
        <time>2014-06-08T12:19:00Z</time>
      </trkpt>
      <trkpt lat="49.28838" lon="1.13596">
        <ele>57</ele>
        <time>2014-06-08T12:19:10Z</time>
      </trkpt>
      <trkpt lat="49.28833" lon="1.13586">
        <ele>57</ele>
        <time>2014-06-08T12:19:20Z</time>
      </trkpt>
      <trkpt lat="49.2883" lon="1.13583">
        <ele>58</ele>
        <time>2014-06-08T12:19:24Z</time>
      </trkpt>
      <trkpt lat="49.28828" lon="1.13579">
        <ele>58</ele>
        <time>2014-06-08T12:19:26Z</time>
      </trkpt>
      <trkpt lat="49.2882" lon="1.13572">
        <ele>58</ele>
        <time>2014-06-08T12:19:36Z</time>
      </trkpt>
      <trkpt lat="49.28812" lon="1.13561">
        <ele>59</ele>
        <time>2014-06-08T12:19:44Z</time>
      </trkpt>
      <trkpt lat="49.28803" lon="1.13548">
        <ele>60</ele>
        <time>2014-06-08T12:19:55Z</time>
      </trkpt>
      <trkpt lat="49.28801" lon="1.13546">
        <ele>60</ele>
        <time>2014-06-08T12:19:58Z</time>
      </trkpt>
      <trkpt lat="49.28798" lon="1.13542">
        <ele>60</ele>
        <time>2014-06-08T12:20:00Z</time>
      </trkpt>
      <trkpt lat="49.28789" lon="1.13531">
        <ele>60</ele>
        <time>2014-06-08T12:20:08Z</time>
      </trkpt>
      <trkpt lat="49.28786" lon="1.13528">
        <ele>60</ele>
        <time>2014-06-08T12:20:11Z</time>
      </trkpt>
      <trkpt lat="49.28779" lon="1.13519">
        <ele>61</ele>
        <time>2014-06-08T12:20:20Z</time>
      </trkpt>
      <trkpt lat="49.28769" lon="1.13509">
        <ele>62</ele>
        <time>2014-06-08T12:20:30Z</time>
      </trkpt>
      <trkpt lat="49.28768" lon="1.13507">
        <ele>61</ele>
        <time>2014-06-08T12:20:31Z</time>
      </trkpt>
      <trkpt lat="49.28764" lon="1.13503">
        <ele>61</ele>
        <time>2014-06-08T12:20:34Z</time>
      </trkpt>
      <trkpt lat="49.28756" lon="1.13497">
        <ele>62</ele>
        <time>2014-06-08T12:20:42Z</time>
      </trkpt>
      <trkpt lat="49.28752" lon="1.13493">
        <ele>62</ele>
        <time>2014-06-08T12:20:45Z</time>
      </trkpt>
      <trkpt lat="49.28748" lon="1.13489">
        <ele>62</ele>
        <time>2014-06-08T12:20:49Z</time>
      </trkpt>
      <trkpt lat="49.28746" lon="1.13487">
        <ele>62</ele>
        <time>2014-06-08T12:20:51Z</time>
      </trkpt>
      <trkpt lat="49.28741" lon="1.13482">
        <ele>62</ele>
        <time>2014-06-08T12:20:56Z</time>
      </trkpt>
      <trkpt lat="49.28734" lon="1.13477">
        <ele>62</ele>
        <time>2014-06-08T12:21:09Z</time>
      </trkpt>
      <trkpt lat="49.28732" lon="1.13469">
        <ele>62</ele>
        <time>2014-06-08T12:21:15Z</time>
      </trkpt>
      <trkpt lat="49.2872" lon="1.13457">
        <ele>62</ele>
        <time>2014-06-08T12:21:25Z</time>
      </trkpt>
      <trkpt lat="49.28713" lon="1.13449">
        <ele>62</ele>
        <time>2014-06-08T12:21:31Z</time>
      </trkpt>
      <trkpt lat="49.28708" lon="1.13443">
        <ele>63</ele>
        <time>2014-06-08T12:21:36Z</time>
      </trkpt>
      <trkpt lat="49.28704" lon="1.13436">
        <ele>63</ele>
        <time>2014-06-08T12:21:44Z</time>
      </trkpt>
      <trkpt lat="49.28693" lon="1.13426">
        <ele>63</ele>
        <time>2014-06-08T12:21:53Z</time>
      </trkpt>
      <trkpt lat="49.28686" lon="1.13416">
        <ele>63</ele>
        <time>2014-06-08T12:22:00Z</time>
      </trkpt>
      <trkpt lat="49.28674" lon="1.13398">
        <ele>63</ele>
        <time>2014-06-08T12:22:10Z</time>
      </trkpt>
      <trkpt lat="49.28665" lon="1.13389">
        <ele>63</ele>
        <time>2014-06-08T12:22:18Z</time>
      </trkpt>
      <trkpt lat="49.28662" lon="1.13386">
        <ele>64</ele>
        <time>2014-06-08T12:22:22Z</time>
      </trkpt>
      <trkpt lat="49.28654" lon="1.13379">
        <ele>64</ele>
        <time>2014-06-08T12:22:32Z</time>
      </trkpt>
      <trkpt lat="49.28654" lon="1.13379">
        <ele>64</ele>
        <time>2014-06-08T12:22:34Z</time>
      </trkpt>
      <trkpt lat="49.28652" lon="1.13378">
        <ele>64</ele>
        <time>2014-06-08T12:22:36Z</time>
      </trkpt>
      <trkpt lat="49.28649" lon="1.13375">
        <ele>64</ele>
        <time>2014-06-08T12:22:40Z</time>
      </trkpt>
      <trkpt lat="49.28646" lon="1.13372">
        <ele>64</ele>
        <time>2014-06-08T12:22:42Z</time>
      </trkpt>
      <trkpt lat="49.28639" lon="1.13362">
        <ele>63</ele>
        <time>2014-06-08T12:22:51Z</time>
      </trkpt>
      <trkpt lat="49.28627" lon="1.13347">
        <ele>64</ele>
        <time>2014-06-08T12:22:59Z</time>
      </trkpt>
      <trkpt lat="49.28623" lon="1.13343">
        <ele>64</ele>
        <time>2014-06-08T12:23:03Z</time>
      </trkpt>
      <trkpt lat="49.28614" lon="1.13335">
        <ele>64</ele>
        <time>2014-06-08T12:23:11Z</time>
      </trkpt>
      <trkpt lat="49.28611" lon="1.13325">
        <ele>64</ele>
        <time>2014-06-08T12:23:19Z</time>
      </trkpt>
      <trkpt lat="49.28611" lon="1.13325">
        <ele>64</ele>
        <time>2014-06-08T12:23:21Z</time>
      </trkpt>
      <trkpt lat="49.28605" lon="1.13317">
        <ele>64</ele>
        <time>2014-06-08T12:23:32Z</time>
      </trkpt>
      <trkpt lat="49.28595" lon="1.13308">
        <ele>64</ele>
        <time>2014-06-08T12:23:40Z</time>
      </trkpt>
      <trkpt lat="49.28593" lon="1.13304">
        <ele>64</ele>
        <time>2014-06-08T12:23:45Z</time>
      </trkpt>
      <trkpt lat="49.2859" lon="1.13298">
        <ele>64</ele>
        <time>2014-06-08T12:23:48Z</time>
      </trkpt>
      <trkpt lat="49.28578" lon="1.13282">
        <ele>65</ele>
        <time>2014-06-08T12:24:00Z</time>
      </trkpt>
      <trkpt lat="49.28574" lon="1.13278">
        <ele>65</ele>
        <time>2014-06-08T12:24:04Z</time>
      </trkpt>
      <trkpt lat="49.28568" lon="1.13272">
        <ele>65</ele>
        <time>2014-06-08T12:24:10Z</time>
      </trkpt>
      <trkpt lat="49.28557" lon="1.1326">
        <ele>65</ele>
        <time>2014-06-08T12:24:21Z</time>
      </trkpt>
      <trkpt lat="49.28549" lon="1.13252">
        <ele>66</ele>
        <time>2014-06-08T12:24:29Z</time>
      </trkpt>
      <trkpt lat="49.28545" lon="1.13248">
        <ele>66</ele>
        <time>2014-06-08T12:24:37Z</time>
      </trkpt>
      <trkpt lat="49.28536" lon="1.13239">
        <ele>66</ele>
        <time>2014-06-08T12:24:48Z</time>
      </trkpt>
      <trkpt lat="49.28527" lon="1.13229">
        <ele>67</ele>
        <time>2014-06-08T12:24:58Z</time>
      </trkpt>
      <trkpt lat="49.28517" lon="1.13216">
        <ele>67</ele>
        <time>2014-06-08T12:25:08Z</time>
      </trkpt>
      <trkpt lat="49.28509" lon="1.13206">
        <ele>67</ele>
        <time>2014-06-08T12:25:19Z</time>
      </trkpt>
      <trkpt lat="49.28504" lon="1.13198">
        <ele>67</ele>
        <time>2014-06-08T12:25:23Z</time>
      </trkpt>
      <trkpt lat="49.28499" lon="1.13194">
        <ele>67</ele>
        <time>2014-06-08T12:25:27Z</time>
      </trkpt>
      <trkpt lat="49.28497" lon="1.13191">
        <ele>67</ele>
        <time>2014-06-08T12:25:30Z</time>
      </trkpt>
      <trkpt lat="49.2849" lon="1.13181">
        <ele>68</ele>
        <time>2014-06-08T12:25:39Z</time>
      </trkpt>
      <trkpt lat="49.28479" lon="1.13171">
        <ele>68</ele>
        <time>2014-06-08T12:25:48Z</time>
      </trkpt>
      <trkpt lat="49.28477" lon="1.1317">
        <ele>68</ele>
        <time>2014-06-08T12:25:49Z</time>
      </trkpt>
      <trkpt lat="49.2846" lon="1.13162">
        <ele>68</ele>
        <time>2014-06-08T12:25:58Z</time>
      </trkpt>
      <trkpt lat="49.28454" lon="1.1315">
        <ele>69</ele>
        <time>2014-06-08T12:26:05Z</time>
      </trkpt>
      <trkpt lat="49.2845" lon="1.13137">
        <ele>69</ele>
        <time>2014-06-08T12:26:15Z</time>
      </trkpt>
      <trkpt lat="49.28448" lon="1.13135">
        <ele>69</ele>
        <time>2014-06-08T12:26:17Z</time>
      </trkpt>
      <trkpt lat="49.28445" lon="1.13131">
        <ele>70</ele>
        <time>2014-06-08T12:26:21Z</time>
      </trkpt>
      <trkpt lat="49.28441" lon="1.13126">
        <ele>70</ele>
        <time>2014-06-08T12:26:31Z</time>
      </trkpt>
      <trkpt lat="49.28442" lon="1.13125">
        <ele>70</ele>
        <time>2014-06-08T12:26:48Z</time>
      </trkpt>
      <trkpt lat="49.28442" lon="1.13125">
        <ele>70</ele>
        <time>2014-06-08T12:27:08Z</time>
      </trkpt>
      <trkpt lat="49.28434" lon="1.13115">
        <ele>70</ele>
        <time>2014-06-08T12:27:18Z</time>
      </trkpt>
      <trkpt lat="49.28428" lon="1.1311">
        <ele>70</ele>
        <time>2014-06-08T12:27:24Z</time>
      </trkpt>
      <trkpt lat="49.28423" lon="1.131">
        <ele>70</ele>
        <time>2014-06-08T12:27:31Z</time>
      </trkpt>
      <trkpt lat="49.28419" lon="1.13094">
        <ele>71</ele>
        <time>2014-06-08T12:27:36Z</time>
      </trkpt>
      <trkpt lat="49.28417" lon="1.13092">
        <ele>71</ele>
        <time>2014-06-08T12:27:39Z</time>
      </trkpt>
      <trkpt lat="49.28408" lon="1.13079">
        <ele>71</ele>
        <time>2014-06-08T12:27:48Z</time>
      </trkpt>
      <trkpt lat="49.28399" lon="1.13067">
        <ele>72</ele>
        <time>2014-06-08T12:27:56Z</time>
      </trkpt>
      <trkpt lat="49.28389" lon="1.13058">
        <ele>72</ele>
        <time>2014-06-08T12:28:06Z</time>
      </trkpt>
      <trkpt lat="49.28383" lon="1.13052">
        <ele>72</ele>
        <time>2014-06-08T12:28:12Z</time>
      </trkpt>
      <trkpt lat="49.28378" lon="1.13046">
        <ele>72</ele>
        <time>2014-06-08T12:28:17Z</time>
      </trkpt>
      <trkpt lat="49.2837" lon="1.13037">
        <ele>72</ele>
        <time>2014-06-08T12:28:26Z</time>
      </trkpt>
      <trkpt lat="49.28359" lon="1.13026">
        <ele>73</ele>
        <time>2014-06-08T12:28:36Z</time>
      </trkpt>
      <trkpt lat="49.28357" lon="1.13024">
        <ele>73</ele>
        <time>2014-06-08T12:28:38Z</time>
      </trkpt>
      <trkpt lat="49.2836" lon="1.13012">
        <ele>74</ele>
        <time>2014-06-08T12:28:47Z</time>
      </trkpt>
      <trkpt lat="49.28362" lon="1.12994">
        <ele>74</ele>
        <time>2014-06-08T12:28:57Z</time>
      </trkpt>
      <trkpt lat="49.28359" lon="1.12983">
        <ele>74</ele>
        <time>2014-06-08T12:29:02Z</time>
      </trkpt>
      <trkpt lat="49.28359" lon="1.12971">
        <ele>73</ele>
        <time>2014-06-08T12:29:07Z</time>
      </trkpt>
      <trkpt lat="49.2836" lon="1.12953">
        <ele>73</ele>
        <time>2014-06-08T12:29:16Z</time>
      </trkpt>
      <trkpt lat="49.28359" lon="1.12948">
        <ele>73</ele>
        <time>2014-06-08T12:29:18Z</time>
      </trkpt>
      <trkpt lat="49.28358" lon="1.12935">
        <ele>73</ele>
        <time>2014-06-08T12:29:23Z</time>
      </trkpt>
      <trkpt lat="49.28363" lon="1.12909">
        <ele>73</ele>
        <time>2014-06-08T12:29:36Z</time>
      </trkpt>
      <trkpt lat="49.28359" lon="1.12896">
        <ele>73</ele>
        <time>2014-06-08T12:29:45Z</time>
      </trkpt>
      <trkpt lat="49.28359" lon="1.1289">
        <ele>73</ele>
        <time>2014-06-08T12:29:47Z</time>
      </trkpt>
      <trkpt lat="49.28365" lon="1.12871">
        <ele>73</ele>
        <time>2014-06-08T12:29:57Z</time>
      </trkpt>
      <trkpt lat="49.28368" lon="1.12861">
        <ele>73</ele>
        <time>2014-06-08T12:30:02Z</time>
      </trkpt>
      <trkpt lat="49.28373" lon="1.12845">
        <ele>73</ele>
        <time>2014-06-08T12:30:09Z</time>
      </trkpt>
      <trkpt lat="49.28379" lon="1.12823">
        <ele>73</ele>
        <time>2014-06-08T12:30:18Z</time>
      </trkpt>
      <trkpt lat="49.28381" lon="1.12816">
        <ele>73</ele>
        <time>2014-06-08T12:30:26Z</time>
      </trkpt>
      <trkpt lat="49.28388" lon="1.12806">
        <ele>72</ele>
        <time>2014-06-08T12:30:36Z</time>
      </trkpt>
      <trkpt lat="49.28397" lon="1.12799">
        <ele>72</ele>
        <time>2014-06-08T12:30:47Z</time>
      </trkpt>
      <trkpt lat="49.28407" lon="1.12786">
        <ele>72</ele>
        <time>2014-06-08T12:30:58Z</time>
      </trkpt>
      <trkpt lat="49.2842" lon="1.12774">
        <ele>72</ele>
        <time>2014-06-08T12:31:06Z</time>
      </trkpt>
      <trkpt lat="49.28427" lon="1.12772">
        <ele>71</ele>
        <time>2014-06-08T12:31:09Z</time>
      </trkpt>
      <trkpt lat="49.28433" lon="1.12767">
        <ele>72</ele>
        <time>2014-06-08T12:31:21Z</time>
      </trkpt>
      <trkpt lat="49.28433" lon="1.12764">
        <ele>72</ele>
        <time>2014-06-08T12:31:41Z</time>
      </trkpt>
      <trkpt lat="49.28438" lon="1.12758">
        <ele>71</ele>
        <time>2014-06-08T12:31:46Z</time>
      </trkpt>
      <trkpt lat="49.28444" lon="1.12749">
        <ele>72</ele>
        <time>2014-06-08T12:31:57Z</time>
      </trkpt>
      <trkpt lat="49.28447" lon="1.1274">
        <ele>72</ele>
        <time>2014-06-08T12:32:05Z</time>
      </trkpt>
      <trkpt lat="49.28447" lon="1.12735">
        <ele>72</ele>
        <time>2014-06-08T12:32:08Z</time>
      </trkpt>
      <trkpt lat="49.28445" lon="1.12721">
        <ele>71</ele>
        <time>2014-06-08T12:32:14Z</time>
      </trkpt>
      <trkpt lat="49.28441" lon="1.12696">
        <ele>71</ele>
        <time>2014-06-08T12:32:26Z</time>
      </trkpt>
      <trkpt lat="49.28441" lon="1.12693">
        <ele>71</ele>
        <time>2014-06-08T12:32:27Z</time>
      </trkpt>
      <trkpt lat="49.28437" lon="1.12675">
        <ele>71</ele>
        <time>2014-06-08T12:32:37Z</time>
      </trkpt>
      <trkpt lat="49.28436" lon="1.12672">
        <ele>71</ele>
        <time>2014-06-08T12:32:39Z</time>
      </trkpt>
      <trkpt lat="49.28427" lon="1.1265">
        <ele>72</ele>
        <time>2014-06-08T12:32:59Z</time>
      </trkpt>
      <trkpt lat="49.28425" lon="1.12615">
        <ele>72</ele>
        <time>2014-06-08T12:33:10Z</time>
      </trkpt>
      <trkpt lat="49.2842" lon="1.12591">
        <ele>72</ele>
        <time>2014-06-08T12:33:20Z</time>
      </trkpt>
      <trkpt lat="49.2842" lon="1.12587">
        <ele>72</ele>
        <time>2014-06-08T12:33:22Z</time>
      </trkpt>
      <trkpt lat="49.28416" lon="1.12576">
        <ele>72</ele>
        <time>2014-06-08T12:33:27Z</time>
      </trkpt>
      <trkpt lat="49.28411" lon="1.12561">
        <ele>72</ele>
        <time>2014-06-08T12:33:36Z</time>
      </trkpt>
      <trkpt lat="49.28411" lon="1.12559">
        <ele>72</ele>
        <time>2014-06-08T12:33:37Z</time>
      </trkpt>
      <trkpt lat="49.28405" lon="1.12538">
        <ele>72</ele>
        <time>2014-06-08T12:33:48Z</time>
      </trkpt>
      <trkpt lat="49.28403" lon="1.12527">
        <ele>72</ele>
        <time>2014-06-08T12:33:53Z</time>
      </trkpt>
      <trkpt lat="49.28404" lon="1.12519">
        <ele>72</ele>
        <time>2014-06-08T12:33:57Z</time>
      </trkpt>
      <trkpt lat="49.28401" lon="1.12506">
        <ele>72</ele>
        <time>2014-06-08T12:34:03Z</time>
      </trkpt>
      <trkpt lat="49.28402" lon="1.12492">
        <ele>72</ele>
        <time>2014-06-08T12:34:11Z</time>
      </trkpt>
      <trkpt lat="49.284" lon="1.12477">
        <ele>72</ele>
        <time>2014-06-08T12:34:19Z</time>
      </trkpt>
      <trkpt lat="49.284" lon="1.12466">
        <ele>72</ele>
        <time>2014-06-08T12:34:24Z</time>
      </trkpt>
      <trkpt lat="49.284" lon="1.12445">
        <ele>72</ele>
        <time>2014-06-08T12:34:37Z</time>
      </trkpt>
      <trkpt lat="49.28401" lon="1.12443">
        <ele>72</ele>
        <time>2014-06-08T12:34:38Z</time>
      </trkpt>
      <trkpt lat="49.28402" lon="1.12421">
        <ele>72</ele>
        <time>2014-06-08T12:34:50Z</time>
      </trkpt>
      <trkpt lat="49.28405" lon="1.12407">
        <ele>72</ele>
        <time>2014-06-08T12:34:59Z</time>
      </trkpt>
      <trkpt lat="49.28406" lon="1.124">
        <ele>72</ele>
        <time>2014-06-08T12:35:03Z</time>
      </trkpt>
      <trkpt lat="49.28408" lon="1.12382">
        <ele>71</ele>
        <time>2014-06-08T12:35:14Z</time>
      </trkpt>
      <trkpt lat="49.28408" lon="1.12382">
        <ele>71</ele>
        <time>2014-06-08T12:35:19Z</time>
      </trkpt>
      <trkpt lat="49.28408" lon="1.1237">
        <ele>71</ele>
        <time>2014-06-08T12:35:23Z</time>
      </trkpt>
      <trkpt lat="49.28409" lon="1.12356">
        <ele>71</ele>
        <time>2014-06-08T12:35:28Z</time>
      </trkpt>
      <trkpt lat="49.28408" lon="1.12329">
        <ele>71</ele>
        <time>2014-06-08T12:35:39Z</time>
      </trkpt>
      <trkpt lat="49.2841" lon="1.12322">
        <ele>70</ele>
        <time>2014-06-08T12:35:42Z</time>
      </trkpt>
      <trkpt lat="49.28408" lon="1.12297">
        <ele>71</ele>
        <time>2014-06-08T12:35:51Z</time>
      </trkpt>
      <trkpt lat="49.28414" lon="1.12277">
        <ele>71</ele>
        <time>2014-06-08T12:36:00Z</time>
      </trkpt>
      <trkpt lat="49.28414" lon="1.12276">
        <ele>70</ele>
        <time>2014-06-08T12:36:01Z</time>
      </trkpt>
      <trkpt lat="49.28415" lon="1.12271">
        <ele>70</ele>
        <time>2014-06-08T12:36:04Z</time>
      </trkpt>
      <trkpt lat="49.28416" lon="1.12254">
        <ele>70</ele>
        <time>2014-06-08T12:36:14Z</time>
      </trkpt>
      <trkpt lat="49.28417" lon="1.12234">
        <ele>69</ele>
        <time>2014-06-08T12:36:23Z</time>
      </trkpt>
      <trkpt lat="49.28417" lon="1.12229">
        <ele>69</ele>
        <time>2014-06-08T12:36:25Z</time>
      </trkpt>
      <trkpt lat="49.28417" lon="1.12226">
        <ele>69</ele>
        <time>2014-06-08T12:36:27Z</time>
      </trkpt>
      <trkpt lat="49.2842" lon="1.12208">
        <ele>69</ele>
        <time>2014-06-08T12:36:37Z</time>
      </trkpt>
      <trkpt lat="49.28421" lon="1.12197">
        <ele>68</ele>
        <time>2014-06-08T12:36:44Z</time>
      </trkpt>
      <trkpt lat="49.28424" lon="1.12182">
        <ele>69</ele>
        <time>2014-06-08T12:36:52Z</time>
      </trkpt>
      <trkpt lat="49.28428" lon="1.12169">
        <ele>68</ele>
        <time>2014-06-08T12:36:59Z</time>
      </trkpt>
      <trkpt lat="49.28426" lon="1.1215">
        <ele>67</ele>
        <time>2014-06-08T12:37:09Z</time>
      </trkpt>
      <trkpt lat="49.28428" lon="1.12133">
        <ele>67</ele>
        <time>2014-06-08T12:37:18Z</time>
      </trkpt>
      <trkpt lat="49.28428" lon="1.1213">
        <ele>67</ele>
        <time>2014-06-08T12:37:20Z</time>
      </trkpt>
      <trkpt lat="49.28426" lon="1.12124">
        <ele>67</ele>
        <time>2014-06-08T12:37:23Z</time>
      </trkpt>
      <trkpt lat="49.28416" lon="1.12113">
        <ele>67</ele>
        <time>2014-06-08T12:37:32Z</time>
      </trkpt>
      <trkpt lat="49.28414" lon="1.12108">
        <ele>68</ele>
        <time>2014-06-08T12:37:35Z</time>
      </trkpt>
      <trkpt lat="49.28409" lon="1.12103">
        <ele>68</ele>
        <time>2014-06-08T12:37:40Z</time>
      </trkpt>
      <trkpt lat="49.28398" lon="1.12091">
        <ele>68</ele>
        <time>2014-06-08T12:37:51Z</time>
      </trkpt>
      <trkpt lat="49.2839" lon="1.12085">
        <ele>68</ele>
        <time>2014-06-08T12:38:00Z</time>
      </trkpt>
      <trkpt lat="49.28386" lon="1.12082">
        <ele>68</ele>
        <time>2014-06-08T12:38:13Z</time>
      </trkpt>
      <trkpt lat="49.28385" lon="1.12082">
        <ele>68</ele>
        <time>2014-06-08T12:38:14Z</time>
      </trkpt>
      <trkpt lat="49.28381" lon="1.12078">
        <ele>68</ele>
        <time>2014-06-08T12:38:17Z</time>
      </trkpt>
      <trkpt lat="49.28375" lon="1.1207">
        <ele>67</ele>
        <time>2014-06-08T12:38:26Z</time>
      </trkpt>
      <trkpt lat="49.28374" lon="1.1207">
        <ele>67</ele>
        <time>2014-06-08T12:38:27Z</time>
      </trkpt>
      <trkpt lat="49.28365" lon="1.12057">
        <ele>66</ele>
        <time>2014-06-08T12:38:38Z</time>
      </trkpt>
      <trkpt lat="49.28364" lon="1.12056">
        <ele>66</ele>
        <time>2014-06-08T12:38:39Z</time>
      </trkpt>
      <trkpt lat="49.2836" lon="1.12053">
        <ele>66</ele>
        <time>2014-06-08T12:38:43Z</time>
      </trkpt>
      <trkpt lat="49.28356" lon="1.12049">
        <ele>66</ele>
        <time>2014-06-08T12:38:47Z</time>
      </trkpt>
      <trkpt lat="49.2835" lon="1.12041">
        <ele>66</ele>
        <time>2014-06-08T12:38:51Z</time>
      </trkpt>
      <trkpt lat="49.28341" lon="1.12027">
        <ele>66</ele>
        <time>2014-06-08T12:39:01Z</time>
      </trkpt>
      <trkpt lat="49.28333" lon="1.12015">
        <ele>66</ele>
        <time>2014-06-08T12:39:10Z</time>
      </trkpt>
      <trkpt lat="49.28326" lon="1.12008">
        <ele>65</ele>
        <time>2014-06-08T12:39:17Z</time>
      </trkpt>
      <trkpt lat="49.28325" lon="1.12007">
        <ele>65</ele>
        <time>2014-06-08T12:39:18Z</time>
      </trkpt>
      <trkpt lat="49.28322" lon="1.12">
        <ele>66</ele>
        <time>2014-06-08T12:39:23Z</time>
      </trkpt>
      <trkpt lat="49.28319" lon="1.11995">
        <ele>66</ele>
        <time>2014-06-08T12:39:27Z</time>
      </trkpt>
      <trkpt lat="49.2831" lon="1.11983">
        <ele>66</ele>
        <time>2014-06-08T12:39:36Z</time>
      </trkpt>
      <trkpt lat="49.28305" lon="1.11977">
        <ele>66</ele>
        <time>2014-06-08T12:39:41Z</time>
      </trkpt>
      <trkpt lat="49.28291" lon="1.11963">
        <ele>66</ele>
        <time>2014-06-08T12:39:51Z</time>
      </trkpt>
      <trkpt lat="49.28283" lon="1.11954">
        <ele>66</ele>
        <time>2014-06-08T12:39:59Z</time>
      </trkpt>
      <trkpt lat="49.28281" lon="1.1195">
        <ele>66</ele>
        <time>2014-06-08T12:40:03Z</time>
      </trkpt>
      <trkpt lat="49.28273" lon="1.11943">
        <ele>66</ele>
        <time>2014-06-08T12:40:11Z</time>
      </trkpt>
      <trkpt lat="49.2827" lon="1.11941">
        <ele>67</ele>
        <time>2014-06-08T12:40:15Z</time>
      </trkpt>
      <trkpt lat="49.2826" lon="1.11932">
        <ele>67</ele>
        <time>2014-06-08T12:40:24Z</time>
      </trkpt>
      <trkpt lat="49.28255" lon="1.11928">
        <ele>67</ele>
        <time>2014-06-08T12:40:28Z</time>
      </trkpt>
      <trkpt lat="49.28251" lon="1.11925">
        <ele>68</ele>
        <time>2014-06-08T12:40:32Z</time>
      </trkpt>
      <trkpt lat="49.28248" lon="1.11922">
        <ele>68</ele>
        <time>2014-06-08T12:40:35Z</time>
      </trkpt>
      <trkpt lat="49.28245" lon="1.11918">
        <ele>68</ele>
        <time>2014-06-08T12:40:38Z</time>
      </trkpt>
      <trkpt lat="49.2824" lon="1.11911">
        <ele>68</ele>
        <time>2014-06-08T12:40:44Z</time>
      </trkpt>
      <trkpt lat="49.28238" lon="1.11908">
        <ele>69</ele>
        <time>2014-06-08T12:40:47Z</time>
      </trkpt>
      <trkpt lat="49.2823" lon="1.1189">
        <ele>69</ele>
        <time>2014-06-08T12:40:59Z</time>
      </trkpt>
      <trkpt lat="49.28228" lon="1.11887">
        <ele>69</ele>
        <time>2014-06-08T12:41:04Z</time>
      </trkpt>
      <trkpt lat="49.28221" lon="1.1188">
        <ele>70</ele>
        <time>2014-06-08T12:41:12Z</time>
      </trkpt>
      <trkpt lat="49.28221" lon="1.1188">
        <ele>70</ele>
        <time>2014-06-08T12:41:13Z</time>
      </trkpt>
      <trkpt lat="49.28218" lon="1.11876">
        <ele>70</ele>
        <time>2014-06-08T12:41:16Z</time>
      </trkpt>
      <trkpt lat="49.28209" lon="1.11867">
        <ele>70</ele>
        <time>2014-06-08T12:41:24Z</time>
      </trkpt>
      <trkpt lat="49.28201" lon="1.11857">
        <ele>71</ele>
        <time>2014-06-08T12:41:31Z</time>
      </trkpt>
      <trkpt lat="49.28197" lon="1.11842">
        <ele>71</ele>
        <time>2014-06-08T12:41:38Z</time>
      </trkpt>
      <trkpt lat="49.28193" lon="1.11824">
        <ele>71</ele>
        <time>2014-06-08T12:41:47Z</time>
      </trkpt>
      <trkpt lat="49.28195" lon="1.1182">
        <ele>71</ele>
        <time>2014-06-08T12:41:50Z</time>
      </trkpt>
      <trkpt lat="49.28193" lon="1.11814">
        <ele>71</ele>
        <time>2014-06-08T12:41:54Z</time>
      </trkpt>
      <trkpt lat="49.2819" lon="1.1181">
        <ele>72</ele>
        <time>2014-06-08T12:41:57Z</time>
      </trkpt>
      <trkpt lat="49.28181" lon="1.11792">
        <ele>72</ele>
        <time>2014-06-08T12:42:07Z</time>
      </trkpt>
      <trkpt lat="49.2818" lon="1.11785">
        <ele>73</ele>
        <time>2014-06-08T12:42:11Z</time>
      </trkpt>
      <trkpt lat="49.2818" lon="1.11776">
        <ele>73</ele>
        <time>2014-06-08T12:42:16Z</time>
      </trkpt>
      <trkpt lat="49.28179" lon="1.11769">
        <ele>73</ele>
        <time>2014-06-08T12:42:21Z</time>
      </trkpt>
      <trkpt lat="49.28178" lon="1.11754">
        <ele>74</ele>
        <time>2014-06-08T12:42:32Z</time>
      </trkpt>
      <trkpt lat="49.28177" lon="1.11745">
        <ele>74</ele>
        <time>2014-06-08T12:42:39Z</time>
      </trkpt>
      <trkpt lat="49.28177" lon="1.11734">
        <ele>75</ele>
        <time>2014-06-08T12:42:45Z</time>
      </trkpt>
      <trkpt lat="49.28176" lon="1.11721">
        <ele>75</ele>
        <time>2014-06-08T12:42:53Z</time>
      </trkpt>
      <trkpt lat="49.28177" lon="1.11717">
        <ele>76</ele>
        <time>2014-06-08T12:42:55Z</time>
      </trkpt>
      <trkpt lat="49.28178" lon="1.1171">
        <ele>76</ele>
        <time>2014-06-08T12:43:00Z</time>
      </trkpt>
      <trkpt lat="49.28176" lon="1.11699">
        <ele>76</ele>
        <time>2014-06-08T12:43:06Z</time>
      </trkpt>
      <trkpt lat="49.28174" lon="1.11692">
        <ele>77</ele>
        <time>2014-06-08T12:43:10Z</time>
      </trkpt>
      <trkpt lat="49.28172" lon="1.11688">
        <ele>77</ele>
        <time>2014-06-08T12:43:12Z</time>
      </trkpt>
      <trkpt lat="49.2817" lon="1.11685">
        <ele>77</ele>
        <time>2014-06-08T12:43:14Z</time>
      </trkpt>
      <trkpt lat="49.28169" lon="1.11679">
        <ele>77</ele>
        <time>2014-06-08T12:43:17Z</time>
      </trkpt>
      <trkpt lat="49.28167" lon="1.11676">
        <ele>77</ele>
        <time>2014-06-08T12:43:19Z</time>
      </trkpt>
      <trkpt lat="49.28168" lon="1.11672">
        <ele>78</ele>
        <time>2014-06-08T12:43:21Z</time>
      </trkpt>
      <trkpt lat="49.28163" lon="1.1166">
        <ele>78</ele>
        <time>2014-06-08T12:43:29Z</time>
      </trkpt>
      <trkpt lat="49.2816" lon="1.11654">
        <ele>78</ele>
        <time>2014-06-08T12:43:33Z</time>
      </trkpt>
      <trkpt lat="49.28152" lon="1.11638">
        <ele>78</ele>
        <time>2014-06-08T12:43:45Z</time>
      </trkpt>
      <trkpt lat="49.28145" lon="1.11623">
        <ele>79</ele>
        <time>2014-06-08T12:43:53Z</time>
      </trkpt>
      <trkpt lat="49.28145" lon="1.1162">
        <ele>79</ele>
        <time>2014-06-08T12:43:55Z</time>
      </trkpt>
      <trkpt lat="49.28142" lon="1.11608">
        <ele>79</ele>
        <time>2014-06-08T12:44:03Z</time>
      </trkpt>
      <trkpt lat="49.28139" lon="1.11601">
        <ele>80</ele>
        <time>2014-06-08T12:44:09Z</time>
      </trkpt>
      <trkpt lat="49.28127" lon="1.11588">
        <ele>80</ele>
        <time>2014-06-08T12:44:17Z</time>
      </trkpt>
      <trkpt lat="49.28125" lon="1.11585">
        <ele>81</ele>
        <time>2014-06-08T12:44:20Z</time>
      </trkpt>
      <trkpt lat="49.28122" lon="1.11577">
        <ele>81</ele>
        <time>2014-06-08T12:44:26Z</time>
      </trkpt>
      <trkpt lat="49.28122" lon="1.11576">
        <ele>81</ele>
        <time>2014-06-08T12:44:27Z</time>
      </trkpt>
      <trkpt lat="49.28121" lon="1.11572">
        <ele>81</ele>
        <time>2014-06-08T12:44:29Z</time>
      </trkpt>
      <trkpt lat="49.28116" lon="1.11566">
        <ele>81</ele>
        <time>2014-06-08T12:44:34Z</time>
      </trkpt>
      <trkpt lat="49.28115" lon="1.1156">
        <ele>82</ele>
        <time>2014-06-08T12:44:39Z</time>
      </trkpt>
      <trkpt lat="49.28111" lon="1.11553">
        <ele>82</ele>
        <time>2014-06-08T12:44:45Z</time>
      </trkpt>
      <trkpt lat="49.28109" lon="1.11547">
        <ele>83</ele>
        <time>2014-06-08T12:44:49Z</time>
      </trkpt>
      <trkpt lat="49.28103" lon="1.11537">
        <ele>83</ele>
        <time>2014-06-08T12:44:58Z</time>
      </trkpt>
      <trkpt lat="49.28101" lon="1.11535">
        <ele>83</ele>
        <time>2014-06-08T12:45:00Z</time>
      </trkpt>
      <trkpt lat="49.28097" lon="1.11529">
        <ele>84</ele>
        <time>2014-06-08T12:45:05Z</time>
      </trkpt>
      <trkpt lat="49.28094" lon="1.11522">
        <ele>84</ele>
        <time>2014-06-08T12:45:10Z</time>
      </trkpt>
      <trkpt lat="49.28089" lon="1.11512">
        <ele>84</ele>
        <time>2014-06-08T12:45:15Z</time>
      </trkpt>
      <trkpt lat="49.28085" lon="1.11503">
        <ele>85</ele>
        <time>2014-06-08T12:45:22Z</time>
      </trkpt>
      <trkpt lat="49.28083" lon="1.115">
        <ele>85</ele>
        <time>2014-06-08T12:45:24Z</time>
      </trkpt>
      <trkpt lat="49.28078" lon="1.11494">
        <ele>86</ele>
        <time>2014-06-08T12:45:28Z</time>
      </trkpt>
      <trkpt lat="49.28074" lon="1.11484">
        <ele>86</ele>
        <time>2014-06-08T12:45:35Z</time>
      </trkpt>
      <trkpt lat="49.28067" lon="1.11469">
        <ele>87</ele>
        <time>2014-06-08T12:45:45Z</time>
      </trkpt>
      <trkpt lat="49.28065" lon="1.11464">
        <ele>87</ele>
        <time>2014-06-08T12:45:50Z</time>
      </trkpt>
      <trkpt lat="49.28064" lon="1.11456">
        <ele>88</ele>
        <time>2014-06-08T12:45:56Z</time>
      </trkpt>
      <trkpt lat="49.28063" lon="1.11448">
        <ele>88</ele>
        <time>2014-06-08T12:46:01Z</time>
      </trkpt>
      <trkpt lat="49.28062" lon="1.11445">
        <ele>88</ele>
        <time>2014-06-08T12:46:03Z</time>
      </trkpt>
      <trkpt lat="49.2806" lon="1.11436">
        <ele>89</ele>
        <time>2014-06-08T12:46:08Z</time>
      </trkpt>
      <trkpt lat="49.28057" lon="1.11427">
        <ele>89</ele>
        <time>2014-06-08T12:46:13Z</time>
      </trkpt>
      <trkpt lat="49.28058" lon="1.11419">
        <ele>90</ele>
        <time>2014-06-08T12:46:19Z</time>
      </trkpt>
      <trkpt lat="49.28056" lon="1.11412">
        <ele>90</ele>
        <time>2014-06-08T12:46:23Z</time>
      </trkpt>
      <trkpt lat="49.28055" lon="1.11408">
        <ele>91</ele>
        <time>2014-06-08T12:46:27Z</time>
      </trkpt>
      <trkpt lat="49.28055" lon="1.11402">
        <ele>91</ele>
        <time>2014-06-08T12:46:31Z</time>
      </trkpt>
      <trkpt lat="49.28053" lon="1.114">
        <ele>91</ele>
        <time>2014-06-08T12:46:33Z</time>
      </trkpt>
      <trkpt lat="49.28047" lon="1.11389">
        <ele>91</ele>
        <time>2014-06-08T12:46:42Z</time>
      </trkpt>
      <trkpt lat="49.28045" lon="1.11377">
        <ele>92</ele>
        <time>2014-06-08T12:46:49Z</time>
      </trkpt>
      <trkpt lat="49.28043" lon="1.11366">
        <ele>92</ele>
        <time>2014-06-08T12:46:56Z</time>
      </trkpt>
      <trkpt lat="49.28041" lon="1.11356">
        <ele>93</ele>
        <time>2014-06-08T12:47:02Z</time>
      </trkpt>
      <trkpt lat="49.28033" lon="1.11346">
        <ele>94</ele>
        <time>2014-06-08T12:47:08Z</time>
      </trkpt>
      <trkpt lat="49.2803" lon="1.11333">
        <ele>94</ele>
        <time>2014-06-08T12:47:16Z</time>
      </trkpt>
      <trkpt lat="49.28027" lon="1.11316">
        <ele>95</ele>
        <time>2014-06-08T12:47:26Z</time>
      </trkpt>
      <trkpt lat="49.28022" lon="1.11302">
        <ele>96</ele>
        <time>2014-06-08T12:47:35Z</time>
      </trkpt>
      <trkpt lat="49.28015" lon="1.1129">
        <ele>97</ele>
        <time>2014-06-08T12:47:45Z</time>
      </trkpt>
      <trkpt lat="49.28009" lon="1.1128">
        <ele>98</ele>
        <time>2014-06-08T12:47:56Z</time>
      </trkpt>
      <trkpt lat="49.27997" lon="1.11267">
        <ele>99</ele>
        <time>2014-06-08T12:48:08Z</time>
      </trkpt>
      <trkpt lat="49.2799" lon="1.11255">
        <ele>100</ele>
        <time>2014-06-08T12:48:18Z</time>
      </trkpt>
      <trkpt lat="49.27983" lon="1.11246">
        <ele>101</ele>
        <time>2014-06-08T12:48:29Z</time>
      </trkpt>
      <trkpt lat="49.27978" lon="1.1124">
        <ele>102</ele>
        <time>2014-06-08T12:48:37Z</time>
      </trkpt>
      <trkpt lat="49.2797" lon="1.11234">
        <ele>102</ele>
        <time>2014-06-08T12:48:47Z</time>
      </trkpt>
      <trkpt lat="49.27965" lon="1.11232">
        <ele>103</ele>
        <time>2014-06-08T12:48:58Z</time>
      </trkpt>
      <trkpt lat="49.2796" lon="1.11226">
        <ele>103</ele>
        <time>2014-06-08T12:49:07Z</time>
      </trkpt>
      <trkpt lat="49.27947" lon="1.11215">
        <ele>104</ele>
        <time>2014-06-08T12:49:17Z</time>
      </trkpt>
      <trkpt lat="49.27944" lon="1.11207">
        <ele>105</ele>
        <time>2014-06-08T12:49:26Z</time>
      </trkpt>
      <trkpt lat="49.27934" lon="1.11194">
        <ele>106</ele>
        <time>2014-06-08T12:49:38Z</time>
      </trkpt>
      <trkpt lat="49.27928" lon="1.11185">
        <ele>107</ele>
        <time>2014-06-08T12:49:49Z</time>
      </trkpt>
      <trkpt lat="49.27914" lon="1.11168">
        <ele>108</ele>
        <time>2014-06-08T12:50:03Z</time>
      </trkpt>
      <trkpt lat="49.27913" lon="1.11166">
        <ele>108</ele>
        <time>2014-06-08T12:50:04Z</time>
      </trkpt>
      <trkpt lat="49.27903" lon="1.11149">
        <ele>109</ele>
        <time>2014-06-08T12:50:15Z</time>
      </trkpt>
      <trkpt lat="49.27893" lon="1.11136">
        <ele>110</ele>
        <time>2014-06-08T12:50:23Z</time>
      </trkpt>
      <trkpt lat="49.27881" lon="1.11121">
        <ele>110</ele>
        <time>2014-06-08T12:50:33Z</time>
      </trkpt>
      <trkpt lat="49.27873" lon="1.11108">
        <ele>111</ele>
        <time>2014-06-08T12:50:42Z</time>
      </trkpt>
      <trkpt lat="49.27865" lon="1.11093">
        <ele>112</ele>
        <time>2014-06-08T12:50:52Z</time>
      </trkpt>
      <trkpt lat="49.27855" lon="1.11075">
        <ele>113</ele>
        <time>2014-06-08T12:51:03Z</time>
      </trkpt>
      <trkpt lat="49.2785" lon="1.11062">
        <ele>113</ele>
        <time>2014-06-08T12:51:10Z</time>
      </trkpt>
      <trkpt lat="49.27846" lon="1.11041">
        <ele>114</ele>
        <time>2014-06-08T12:51:21Z</time>
      </trkpt>
      <trkpt lat="49.27844" lon="1.11037">
        <ele>113</ele>
        <time>2014-06-08T12:51:23Z</time>
      </trkpt>
      <trkpt lat="49.27837" lon="1.11024">
        <ele>115</ele>
        <time>2014-06-08T12:51:31Z</time>
      </trkpt>
      <trkpt lat="49.27834" lon="1.11009">
        <ele>115</ele>
        <time>2014-06-08T12:51:40Z</time>
      </trkpt>
      <trkpt lat="49.27832" lon="1.11002">
        <ele>115</ele>
        <time>2014-06-08T12:51:43Z</time>
      </trkpt>
      <trkpt lat="49.27831" lon="1.10998">
        <ele>116</ele>
        <time>2014-06-08T12:51:45Z</time>
      </trkpt>
      <trkpt lat="49.27827" lon="1.10981">
        <ele>116</ele>
        <time>2014-06-08T12:51:53Z</time>
      </trkpt>
      <trkpt lat="49.27826" lon="1.10978">
        <ele>116</ele>
        <time>2014-06-08T12:51:55Z</time>
      </trkpt>
      <trkpt lat="49.27822" lon="1.10958">
        <ele>116</ele>
        <time>2014-06-08T12:52:06Z</time>
      </trkpt>
      <trkpt lat="49.27819" lon="1.1095">
        <ele>116</ele>
        <time>2014-06-08T12:52:11Z</time>
      </trkpt>
      <trkpt lat="49.27817" lon="1.10933">
        <ele>116</ele>
        <time>2014-06-08T12:52:23Z</time>
      </trkpt>
      <trkpt lat="49.27812" lon="1.10912">
        <ele>117</ele>
        <time>2014-06-08T12:52:35Z</time>
      </trkpt>
      <trkpt lat="49.27813" lon="1.10899">
        <ele>117</ele>
        <time>2014-06-08T12:52:42Z</time>
      </trkpt>
      <trkpt lat="49.27813" lon="1.10893">
        <ele>117</ele>
        <time>2014-06-08T12:52:46Z</time>
      </trkpt>
      <trkpt lat="49.27809" lon="1.10873">
        <ele>118</ele>
        <time>2014-06-08T12:52:57Z</time>
      </trkpt>
      <trkpt lat="49.27808" lon="1.10864">
        <ele>118</ele>
        <time>2014-06-08T12:53:03Z</time>
      </trkpt>
      <trkpt lat="49.27803" lon="1.10835">
        <ele>118</ele>
        <time>2014-06-08T12:53:16Z</time>
      </trkpt>
      <trkpt lat="49.27803" lon="1.10831">
        <ele>118</ele>
        <time>2014-06-08T12:53:18Z</time>
      </trkpt>
      <trkpt lat="49.27804" lon="1.10827">
        <ele>118</ele>
        <time>2014-06-08T12:53:27Z</time>
      </trkpt>
      <trkpt lat="49.27805" lon="1.10811">
        <ele>118</ele>
        <time>2014-06-08T12:53:37Z</time>
      </trkpt>
      <trkpt lat="49.27805" lon="1.108">
        <ele>119</ele>
        <time>2014-06-08T12:53:42Z</time>
      </trkpt>
      <trkpt lat="49.27804" lon="1.10789">
        <ele>119</ele>
        <time>2014-06-08T12:53:47Z</time>
      </trkpt>
      <trkpt lat="49.27804" lon="1.10786">
        <ele>119</ele>
        <time>2014-06-08T12:53:49Z</time>
      </trkpt>
      <trkpt lat="49.27804" lon="1.1076">
        <ele>119</ele>
        <time>2014-06-08T12:54:02Z</time>
      </trkpt>
      <trkpt lat="49.27804" lon="1.10741">
        <ele>119</ele>
        <time>2014-06-08T12:54:12Z</time>
      </trkpt>
      <trkpt lat="49.27802" lon="1.1072">
        <ele>119</ele>
        <time>2014-06-08T12:54:23Z</time>
      </trkpt>
      <trkpt lat="49.27797" lon="1.10697">
        <ele>119</ele>
        <time>2014-06-08T12:54:36Z</time>
      </trkpt>
      <trkpt lat="49.27797" lon="1.10695">
        <ele>119</ele>
        <time>2014-06-08T12:54:37Z</time>
      </trkpt>
      <trkpt lat="49.27792" lon="1.10683">
        <ele>119</ele>
        <time>2014-06-08T12:54:45Z</time>
      </trkpt>
      <trkpt lat="49.27786" lon="1.1067">
        <ele>120</ele>
        <time>2014-06-08T12:54:57Z</time>
      </trkpt>
      <trkpt lat="49.27787" lon="1.10667">
        <ele>119</ele>
        <time>2014-06-08T12:55:10Z</time>
      </trkpt>
      <trkpt lat="49.27784" lon="1.1067">
        <ele>119</ele>
        <time>2014-06-08T12:55:24Z</time>
      </trkpt>
      <trkpt lat="49.27781" lon="1.10694">
        <ele>119</ele>
        <time>2014-06-08T12:55:35Z</time>
      </trkpt>
      <trkpt lat="49.2778" lon="1.10697">
        <ele>119</ele>
        <time>2014-06-08T12:55:36Z</time>
      </trkpt>
      <trkpt lat="49.2778" lon="1.1072">
        <ele>119</ele>
        <time>2014-06-08T12:55:48Z</time>
      </trkpt>
      <trkpt lat="49.2778" lon="1.10723">
        <ele>119</ele>
        <time>2014-06-08T12:55:50Z</time>
      </trkpt>
      <trkpt lat="49.27777" lon="1.1073">
        <ele>119</ele>
        <time>2014-06-08T12:55:54Z</time>
      </trkpt>
      <trkpt lat="49.27772" lon="1.10747">
        <ele>119</ele>
        <time>2014-06-08T12:56:05Z</time>
      </trkpt>
      <trkpt lat="49.27771" lon="1.10764">
        <ele>119</ele>
        <time>2014-06-08T12:56:15Z</time>
      </trkpt>
      <trkpt lat="49.27772" lon="1.10775">
        <ele>119</ele>
        <time>2014-06-08T12:56:20Z</time>
      </trkpt>
      <trkpt lat="49.2777" lon="1.10789">
        <ele>119</ele>
        <time>2014-06-08T12:56:28Z</time>
      </trkpt>
      <trkpt lat="49.27768" lon="1.10798">
        <ele>118</ele>
        <time>2014-06-08T12:56:33Z</time>
      </trkpt>
      <trkpt lat="49.27769" lon="1.10812">
        <ele>118</ele>
        <time>2014-06-08T12:56:38Z</time>
      </trkpt>
      <trkpt lat="49.27771" lon="1.10833">
        <ele>118</ele>
        <time>2014-06-08T12:56:47Z</time>
      </trkpt>
      <trkpt lat="49.27772" lon="1.10841">
        <ele>117</ele>
        <time>2014-06-08T12:56:52Z</time>
      </trkpt>
      <trkpt lat="49.27771" lon="1.10847">
        <ele>117</ele>
        <time>2014-06-08T12:56:55Z</time>
      </trkpt>
      <trkpt lat="49.27769" lon="1.10855">
        <ele>117</ele>
        <time>2014-06-08T12:56:59Z</time>
      </trkpt>
      <trkpt lat="49.27765" lon="1.10868">
        <ele>116</ele>
        <time>2014-06-08T12:57:08Z</time>
      </trkpt>
      <trkpt lat="49.27764" lon="1.1087">
        <ele>116</ele>
        <time>2014-06-08T12:57:09Z</time>
      </trkpt>
      <trkpt lat="49.27763" lon="1.10876">
        <ele>116</ele>
        <time>2014-06-08T12:57:12Z</time>
      </trkpt>
      <trkpt lat="49.2776" lon="1.10892">
        <ele>116</ele>
        <time>2014-06-08T12:57:21Z</time>
      </trkpt>
      <trkpt lat="49.2776" lon="1.10896">
        <ele>116</ele>
        <time>2014-06-08T12:57:23Z</time>
      </trkpt>
      <trkpt lat="49.27753" lon="1.10913">
        <ele>116</ele>
        <time>2014-06-08T12:57:32Z</time>
      </trkpt>
      <trkpt lat="49.27753" lon="1.10917">
        <ele>115</ele>
        <time>2014-06-08T12:57:34Z</time>
      </trkpt>
      <trkpt lat="49.27753" lon="1.10922">
        <ele>115</ele>
        <time>2014-06-08T12:57:36Z</time>
      </trkpt>
      <trkpt lat="49.2775" lon="1.10937">
        <ele>115</ele>
        <time>2014-06-08T12:57:44Z</time>
      </trkpt>
      <trkpt lat="49.27752" lon="1.10945">
        <ele>114</ele>
        <time>2014-06-08T12:57:48Z</time>
      </trkpt>
      <trkpt lat="49.2775" lon="1.1095">
        <ele>114</ele>
        <time>2014-06-08T12:57:51Z</time>
      </trkpt>
      <trkpt lat="49.27751" lon="1.10955">
        <ele>114</ele>
        <time>2014-06-08T12:57:53Z</time>
      </trkpt>
      <trkpt lat="49.27749" lon="1.10958">
        <ele>114</ele>
        <time>2014-06-08T12:57:55Z</time>
      </trkpt>
      <trkpt lat="49.27753" lon="1.10979">
        <ele>112</ele>
        <time>2014-06-08T12:58:05Z</time>
      </trkpt>
      <trkpt lat="49.27752" lon="1.10988">
        <ele>112</ele>
        <time>2014-06-08T12:58:09Z</time>
      </trkpt>
      <trkpt lat="49.27751" lon="1.11002">
        <ele>111</ele>
        <time>2014-06-08T12:58:18Z</time>
      </trkpt>
      <trkpt lat="49.27753" lon="1.11015">
        <ele>110</ele>
        <time>2014-06-08T12:58:25Z</time>
      </trkpt>
      <trkpt lat="49.27751" lon="1.11023">
        <ele>110</ele>
        <time>2014-06-08T12:58:30Z</time>
      </trkpt>
      <trkpt lat="49.27748" lon="1.11036">
        <ele>108</ele>
        <time>2014-06-08T12:58:41Z</time>
      </trkpt>
      <trkpt lat="49.27747" lon="1.1104">
        <ele>108</ele>
        <time>2014-06-08T12:58:43Z</time>
      </trkpt>
      <trkpt lat="49.27742" lon="1.11059">
        <ele>107</ele>
        <time>2014-06-08T12:58:54Z</time>
      </trkpt>
      <trkpt lat="49.2774" lon="1.11076">
        <ele>104</ele>
        <time>2014-06-08T12:59:03Z</time>
      </trkpt>
      <trkpt lat="49.2774" lon="1.11078">
        <ele>104</ele>
        <time>2014-06-08T12:59:04Z</time>
      </trkpt>
      <trkpt lat="49.27739" lon="1.11083">
        <ele>103</ele>
        <time>2014-06-08T12:59:07Z</time>
      </trkpt>
      <trkpt lat="49.27738" lon="1.11104">
        <ele>102</ele>
        <time>2014-06-08T12:59:18Z</time>
      </trkpt>
      <trkpt lat="49.27739" lon="1.11118">
        <ele>100</ele>
        <time>2014-06-08T12:59:25Z</time>
      </trkpt>
      <trkpt lat="49.27736" lon="1.11135">
        <ele>98</ele>
        <time>2014-06-08T12:59:34Z</time>
      </trkpt>
      <trkpt lat="49.27733" lon="1.11146">
        <ele>97</ele>
        <time>2014-06-08T12:59:41Z</time>
      </trkpt>
      <trkpt lat="49.27728" lon="1.11155">
        <ele>96</ele>
        <time>2014-06-08T12:59:47Z</time>
      </trkpt>
      <trkpt lat="49.27727" lon="1.1117">
        <ele>95</ele>
        <time>2014-06-08T12:59:56Z</time>
      </trkpt>
      <trkpt lat="49.27726" lon="1.11182">
        <ele>95</ele>
        <time>2014-06-08T13:00:02Z</time>
      </trkpt>
      <trkpt lat="49.27722" lon="1.11199">
        <ele>96</ele>
        <time>2014-06-08T13:00:12Z</time>
      </trkpt>
      <trkpt lat="49.2772" lon="1.11204">
        <ele>96</ele>
        <time>2014-06-08T13:00:15Z</time>
      </trkpt>
      <trkpt lat="49.27719" lon="1.11209">
        <ele>97</ele>
        <time>2014-06-08T13:00:18Z</time>
      </trkpt>
      <trkpt lat="49.2772" lon="1.11218">
        <ele>97</ele>
        <time>2014-06-08T13:00:24Z</time>
      </trkpt>
      <trkpt lat="49.2772" lon="1.11234">
        <ele>98</ele>
        <time>2014-06-08T13:00:34Z</time>
      </trkpt>
      <trkpt lat="49.2772" lon="1.11239">
        <ele>99</ele>
        <time>2014-06-08T13:00:36Z</time>
      </trkpt>
      <trkpt lat="49.2772" lon="1.11244">
        <ele>99</ele>
        <time>2014-06-08T13:00:38Z</time>
      </trkpt>
      <trkpt lat="49.27719" lon="1.11266">
        <ele>100</ele>
        <time>2014-06-08T13:00:50Z</time>
      </trkpt>
      <trkpt lat="49.27719" lon="1.11279">
        <ele>100</ele>
        <time>2014-06-08T13:01:00Z</time>
      </trkpt>
      <trkpt lat="49.27719" lon="1.11285">
        <ele>101</ele>
        <time>2014-06-08T13:01:14Z</time>
      </trkpt>
      <trkpt lat="49.27719" lon="1.113">
        <ele>101</ele>
        <time>2014-06-08T13:01:26Z</time>
      </trkpt>
      <trkpt lat="49.27718" lon="1.11311">
        <ele>101</ele>
        <time>2014-06-08T13:01:38Z</time>
      </trkpt>
      <trkpt lat="49.27718" lon="1.11318">
        <ele>101</ele>
        <time>2014-06-08T13:01:42Z</time>
      </trkpt>
      <trkpt lat="49.27714" lon="1.11334">
        <ele>101</ele>
        <time>2014-06-08T13:01:51Z</time>
      </trkpt>
      <trkpt lat="49.27716" lon="1.11354">
        <ele>102</ele>
        <time>2014-06-08T13:02:00Z</time>
      </trkpt>
      <trkpt lat="49.27714" lon="1.1136">
        <ele>102</ele>
        <time>2014-06-08T13:02:04Z</time>
      </trkpt>
      <trkpt lat="49.2771" lon="1.1137">
        <ele>102</ele>
        <time>2014-06-08T13:02:10Z</time>
      </trkpt>
      <trkpt lat="49.2771" lon="1.11387">
        <ele>103</ele>
        <time>2014-06-08T13:02:20Z</time>
      </trkpt>
      <trkpt lat="49.27708" lon="1.11403">
        <ele>103</ele>
        <time>2014-06-08T13:02:30Z</time>
      </trkpt>
      <trkpt lat="49.27709" lon="1.11404">
        <ele>103</ele>
        <time>2014-06-08T13:02:31Z</time>
      </trkpt>
      <trkpt lat="49.27709" lon="1.11408">
        <ele>103</ele>
        <time>2014-06-08T13:02:33Z</time>
      </trkpt>
      <trkpt lat="49.27707" lon="1.11415">
        <ele>103</ele>
        <time>2014-06-08T13:02:36Z</time>
      </trkpt>
      <trkpt lat="49.27707" lon="1.11418">
        <ele>103</ele>
        <time>2014-06-08T13:02:38Z</time>
      </trkpt>
      <trkpt lat="49.27707" lon="1.11436">
        <ele>103</ele>
        <time>2014-06-08T13:02:47Z</time>
      </trkpt>
      <trkpt lat="49.27702" lon="1.11455">
        <ele>102</ele>
        <time>2014-06-08T13:02:57Z</time>
      </trkpt>
      <trkpt lat="49.27702" lon="1.11469">
        <ele>101</ele>
        <time>2014-06-08T13:03:06Z</time>
      </trkpt>
      <trkpt lat="49.27701" lon="1.11487">
        <ele>100</ele>
        <time>2014-06-08T13:03:17Z</time>
      </trkpt>
      <trkpt lat="49.277" lon="1.115">
        <ele>98</ele>
        <time>2014-06-08T13:03:25Z</time>
      </trkpt>
      <trkpt lat="49.27697" lon="1.11515">
        <ele>96</ele>
        <time>2014-06-08T13:03:34Z</time>
      </trkpt>
      <trkpt lat="49.27697" lon="1.11528">
        <ele>94</ele>
        <time>2014-06-08T13:03:44Z</time>
      </trkpt>
      <trkpt lat="49.27697" lon="1.11528">
        <ele>93</ele>
        <time>2014-06-08T13:03:46Z</time>
      </trkpt>
      <trkpt lat="49.27695" lon="1.11539">
        <ele>91</ele>
        <time>2014-06-08T13:03:55Z</time>
      </trkpt>
      <trkpt lat="49.27695" lon="1.1156">
        <ele>89</ele>
        <time>2014-06-08T13:04:06Z</time>
      </trkpt>
      <trkpt lat="49.27694" lon="1.11563">
        <ele>88</ele>
        <time>2014-06-08T13:04:08Z</time>
      </trkpt>
      <trkpt lat="49.27691" lon="1.11577">
        <ele>87</ele>
        <time>2014-06-08T13:04:17Z</time>
      </trkpt>
      <trkpt lat="49.27689" lon="1.11597">
        <ele>86</ele>
        <time>2014-06-08T13:04:26Z</time>
      </trkpt>
      <trkpt lat="49.27689" lon="1.11606">
        <ele>85</ele>
        <time>2014-06-08T13:04:33Z</time>
      </trkpt>
      <trkpt lat="49.27688" lon="1.11608">
        <ele>85</ele>
        <time>2014-06-08T13:04:50Z</time>
      </trkpt>
      <trkpt lat="49.27688" lon="1.1162">
        <ele>84</ele>
        <time>2014-06-08T13:05:00Z</time>
      </trkpt>
      <trkpt lat="49.27689" lon="1.11627">
        <ele>84</ele>
        <time>2014-06-08T13:05:05Z</time>
      </trkpt>
      <trkpt lat="49.27687" lon="1.11641">
        <ele>85</ele>
        <time>2014-06-08T13:05:13Z</time>
      </trkpt>
      <trkpt lat="49.27685" lon="1.11651">
        <ele>85</ele>
        <time>2014-06-08T13:05:18Z</time>
      </trkpt>
      <trkpt lat="49.27684" lon="1.11658">
        <ele>85</ele>
        <time>2014-06-08T13:05:23Z</time>
      </trkpt>
      <trkpt lat="49.27683" lon="1.1167">
        <ele>86</ele>
        <time>2014-06-08T13:05:30Z</time>
      </trkpt>
      <trkpt lat="49.27682" lon="1.11684">
        <ele>88</ele>
        <time>2014-06-08T13:05:42Z</time>
      </trkpt>
      <trkpt lat="49.27678" lon="1.11696">
        <ele>90</ele>
        <time>2014-06-08T13:05:51Z</time>
      </trkpt>
      <trkpt lat="49.27679" lon="1.11704">
        <ele>91</ele>
        <time>2014-06-08T13:05:59Z</time>
      </trkpt>
      <trkpt lat="49.27678" lon="1.11712">
        <ele>93</ele>
        <time>2014-06-08T13:06:08Z</time>
      </trkpt>
      <trkpt lat="49.27678" lon="1.11713">
        <ele>93</ele>
        <time>2014-06-08T13:06:11Z</time>
      </trkpt>
      <trkpt lat="49.27677" lon="1.11717">
        <ele>94</ele>
        <time>2014-06-08T13:06:15Z</time>
      </trkpt>
      <trkpt lat="49.27679" lon="1.11721">
        <ele>95</ele>
        <time>2014-06-08T13:06:23Z</time>
      </trkpt>
      <trkpt lat="49.27677" lon="1.11721">
        <ele>96</ele>
        <time>2014-06-08T13:06:32Z</time>
      </trkpt>
      <trkpt lat="49.27676" lon="1.11719">
        <ele>96</ele>
        <time>2014-06-08T13:06:50Z</time>
      </trkpt>
      <trkpt lat="49.27676" lon="1.1172">
        <ele>95</ele>
        <time>2014-06-08T13:07:01Z</time>
      </trkpt>
      <trkpt lat="49.27676" lon="1.1172">
        <ele>95</ele>
        <time>2014-06-08T13:07:12Z</time>
      </trkpt>
      <trkpt lat="49.27677" lon="1.11722">
        <ele>95</ele>
        <time>2014-06-08T13:07:30Z</time>
      </trkpt>
      <trkpt lat="49.27679" lon="1.11723">
        <ele>96</ele>
        <time>2014-06-08T13:07:32Z</time>
      </trkpt>
      <trkpt lat="49.27681" lon="1.11732">
        <ele>97</ele>
        <time>2014-06-08T13:07:41Z</time>
      </trkpt>
      <trkpt lat="49.2768" lon="1.11738">
        <ele>99</ele>
        <time>2014-06-08T13:07:47Z</time>
      </trkpt>
      <trkpt lat="49.27679" lon="1.11747">
        <ele>101</ele>
        <time>2014-06-08T13:07:58Z</time>
      </trkpt>
      <trkpt lat="49.27678" lon="1.11755">
        <ele>102</ele>
        <time>2014-06-08T13:08:08Z</time>
      </trkpt>
      <trkpt lat="49.27676" lon="1.11766">
        <ele>104</ele>
        <time>2014-06-08T13:08:20Z</time>
      </trkpt>
      <trkpt lat="49.27674" lon="1.11775">
        <ele>106</ele>
        <time>2014-06-08T13:08:31Z</time>
      </trkpt>
      <trkpt lat="49.27672" lon="1.11786">
        <ele>108</ele>
        <time>2014-06-08T13:08:41Z</time>
      </trkpt>
      <trkpt lat="49.2767" lon="1.11798">
        <ele>109</ele>
        <time>2014-06-08T13:08:51Z</time>
      </trkpt>
      <trkpt lat="49.27669" lon="1.11809">
        <ele>110</ele>
        <time>2014-06-08T13:08:59Z</time>
      </trkpt>
      <trkpt lat="49.27669" lon="1.11813">
        <ele>110</ele>
        <time>2014-06-08T13:09:02Z</time>
      </trkpt>
      <trkpt lat="49.27665" lon="1.1183">
        <ele>112</ele>
        <time>2014-06-08T13:09:14Z</time>
      </trkpt>
      <trkpt lat="49.27665" lon="1.11832">
        <ele>112</ele>
        <time>2014-06-08T13:09:16Z</time>
      </trkpt>
      <trkpt lat="49.27665" lon="1.11841">
        <ele>113</ele>
        <time>2014-06-08T13:09:27Z</time>
      </trkpt>
      <trkpt lat="49.27663" lon="1.11842">
        <ele>113</ele>
        <time>2014-06-08T13:09:45Z</time>
      </trkpt>
      <trkpt lat="49.27663" lon="1.11842">
        <ele>113</ele>
        <time>2014-06-08T13:10:02Z</time>
      </trkpt>
      <trkpt lat="49.27662" lon="1.11847">
        <ele>113</ele>
        <time>2014-06-08T13:10:07Z</time>
      </trkpt>
      <trkpt lat="49.27661" lon="1.1186">
        <ele>114</ele>
        <time>2014-06-08T13:10:17Z</time>
      </trkpt>
      <trkpt lat="49.27661" lon="1.11869">
        <ele>115</ele>
        <time>2014-06-08T13:10:22Z</time>
      </trkpt>
      <trkpt lat="49.27661" lon="1.11876">
        <ele>115</ele>
        <time>2014-06-08T13:10:26Z</time>
      </trkpt>
      <trkpt lat="49.2766" lon="1.11897">
        <ele>116</ele>
        <time>2014-06-08T13:10:38Z</time>
      </trkpt>
      <trkpt lat="49.27658" lon="1.11911">
        <ele>116</ele>
        <time>2014-06-08T13:10:47Z</time>
      </trkpt>
      <trkpt lat="49.27657" lon="1.11922">
        <ele>118</ele>
        <time>2014-06-08T13:10:55Z</time>
      </trkpt>
      <trkpt lat="49.27656" lon="1.11926">
        <ele>117</ele>
        <time>2014-06-08T13:10:57Z</time>
      </trkpt>
      <trkpt lat="49.27655" lon="1.11944">
        <ele>117</ele>
        <time>2014-06-08T13:11:06Z</time>
      </trkpt>
      <trkpt lat="49.27655" lon="1.11945">
        <ele>117</ele>
        <time>2014-06-08T13:11:07Z</time>
      </trkpt>
      <trkpt lat="49.27655" lon="1.11949">
        <ele>117</ele>
        <time>2014-06-08T13:11:09Z</time>
      </trkpt>
      <trkpt lat="49.27653" lon="1.11953">
        <ele>117</ele>
        <time>2014-06-08T13:11:11Z</time>
      </trkpt>
      <trkpt lat="49.27651" lon="1.11965">
        <ele>117</ele>
        <time>2014-06-08T13:11:17Z</time>
      </trkpt>
      <trkpt lat="49.27649" lon="1.11985">
        <ele>117</ele>
        <time>2014-06-08T13:11:29Z</time>
      </trkpt>
      <trkpt lat="49.27648" lon="1.11999">
        <ele>117</ele>
        <time>2014-06-08T13:11:38Z</time>
      </trkpt>
      <trkpt lat="49.27651" lon="1.12008">
        <ele>117</ele>
        <time>2014-06-08T13:11:49Z</time>
      </trkpt>
      <trkpt lat="49.27651" lon="1.12011">
        <ele>117</ele>
        <time>2014-06-08T13:12:03Z</time>
      </trkpt>
      <trkpt lat="49.27649" lon="1.12012">
        <ele>117</ele>
        <time>2014-06-08T13:12:16Z</time>
      </trkpt>
      <trkpt lat="49.27649" lon="1.12012">
        <ele>117</ele>
        <time>2014-06-08T13:12:33Z</time>
      </trkpt>
      <trkpt lat="49.27649" lon="1.12019">
        <ele>117</ele>
        <time>2014-06-08T13:12:46Z</time>
      </trkpt>
      <trkpt lat="49.27647" lon="1.12028">
        <ele>117</ele>
        <time>2014-06-08T13:12:51Z</time>
      </trkpt>
      <trkpt lat="49.27643" lon="1.12044">
        <ele>117</ele>
        <time>2014-06-08T13:12:59Z</time>
      </trkpt>
      <trkpt lat="49.27641" lon="1.12059">
        <ele>118</ele>
        <time>2014-06-08T13:13:08Z</time>
      </trkpt>
      <trkpt lat="49.27641" lon="1.1206">
        <ele>118</ele>
        <time>2014-06-08T13:13:09Z</time>
      </trkpt>
      <trkpt lat="49.27641" lon="1.12071">
        <ele>118</ele>
        <time>2014-06-08T13:13:15Z</time>
      </trkpt>
      <trkpt lat="49.2764" lon="1.12075">
        <ele>118</ele>
        <time>2014-06-08T13:13:17Z</time>
      </trkpt>
      <trkpt lat="49.27637" lon="1.1209">
        <ele>117</ele>
        <time>2014-06-08T13:13:25Z</time>
      </trkpt>
      <trkpt lat="49.27635" lon="1.121">
        <ele>118</ele>
        <time>2014-06-08T13:13:29Z</time>
      </trkpt>
      <trkpt lat="49.27635" lon="1.12106">
        <ele>118</ele>
        <time>2014-06-08T13:13:32Z</time>
      </trkpt>
      <trkpt lat="49.27635" lon="1.12119">
        <ele>118</ele>
        <time>2014-06-08T13:13:38Z</time>
      </trkpt>
      <trkpt lat="49.27637" lon="1.12131">
        <ele>118</ele>
        <time>2014-06-08T13:13:44Z</time>
      </trkpt>
      <trkpt lat="49.27636" lon="1.12138">
        <ele>118</ele>
        <time>2014-06-08T13:13:48Z</time>
      </trkpt>
      <trkpt lat="49.27635" lon="1.12152">
        <ele>118</ele>
        <time>2014-06-08T13:13:56Z</time>
      </trkpt>
      <trkpt lat="49.27633" lon="1.12158">
        <ele>118</ele>
        <time>2014-06-08T13:14:00Z</time>
      </trkpt>
      <trkpt lat="49.27633" lon="1.12161">
        <ele>118</ele>
        <time>2014-06-08T13:14:02Z</time>
      </trkpt>
      <trkpt lat="49.27629" lon="1.12176">
        <ele>118</ele>
        <time>2014-06-08T13:14:12Z</time>
      </trkpt>
      <trkpt lat="49.27628" lon="1.12182">
        <ele>118</ele>
        <time>2014-06-08T13:14:15Z</time>
      </trkpt>
      <trkpt lat="49.27627" lon="1.12193">
        <ele>118</ele>
        <time>2014-06-08T13:14:23Z</time>
      </trkpt>
      <trkpt lat="49.27626" lon="1.12207">
        <ele>118</ele>
        <time>2014-06-08T13:14:29Z</time>
      </trkpt>
      <trkpt lat="49.27625" lon="1.12212">
        <ele>118</ele>
        <time>2014-06-08T13:14:32Z</time>
      </trkpt>
      <trkpt lat="49.27624" lon="1.12218">
        <ele>119</ele>
        <time>2014-06-08T13:14:35Z</time>
      </trkpt>
      <trkpt lat="49.27622" lon="1.12239">
        <ele>118</ele>
        <time>2014-06-08T13:14:46Z</time>
      </trkpt>
      <trkpt lat="49.27621" lon="1.12251">
        <ele>119</ele>
        <time>2014-06-08T13:14:53Z</time>
      </trkpt>
      <trkpt lat="49.27621" lon="1.12255">
        <ele>118</ele>
        <time>2014-06-08T13:14:55Z</time>
      </trkpt>
      <trkpt lat="49.27621" lon="1.12266">
        <ele>118</ele>
        <time>2014-06-08T13:15:01Z</time>
      </trkpt>
      <trkpt lat="49.27621" lon="1.12275">
        <ele>119</ele>
        <time>2014-06-08T13:15:06Z</time>
      </trkpt>
      <trkpt lat="49.27619" lon="1.12294">
        <ele>119</ele>
        <time>2014-06-08T13:15:14Z</time>
      </trkpt>
      <trkpt lat="49.27617" lon="1.12308">
        <ele>118</ele>
        <time>2014-06-08T13:15:21Z</time>
      </trkpt>
      <trkpt lat="49.27615" lon="1.12326">
        <ele>118</ele>
        <time>2014-06-08T13:15:31Z</time>
      </trkpt>
      <trkpt lat="49.27615" lon="1.12327">
        <ele>118</ele>
        <time>2014-06-08T13:15:32Z</time>
      </trkpt>
      <trkpt lat="49.27614" lon="1.12338">
        <ele>118</ele>
        <time>2014-06-08T13:15:39Z</time>
      </trkpt>
      <trkpt lat="49.27614" lon="1.12346">
        <ele>118</ele>
        <time>2014-06-08T13:15:43Z</time>
      </trkpt>
      <trkpt lat="49.27613" lon="1.12367">
        <ele>118</ele>
        <time>2014-06-08T13:15:54Z</time>
      </trkpt>
      <trkpt lat="49.2761" lon="1.12375">
        <ele>118</ele>
        <time>2014-06-08T13:16:01Z</time>
      </trkpt>
      <trkpt lat="49.27608" lon="1.12379">
        <ele>118</ele>
        <time>2014-06-08T13:16:04Z</time>
      </trkpt>
      <trkpt lat="49.27606" lon="1.12383">
        <ele>118</ele>
        <time>2014-06-08T13:16:06Z</time>
      </trkpt>
      <trkpt lat="49.27605" lon="1.12392">
        <ele>118</ele>
        <time>2014-06-08T13:16:12Z</time>
      </trkpt>
      <trkpt lat="49.27605" lon="1.12397">
        <ele>118</ele>
        <time>2014-06-08T13:16:14Z</time>
      </trkpt>
      <trkpt lat="49.27605" lon="1.12402">
        <ele>118</ele>
        <time>2014-06-08T13:16:17Z</time>
      </trkpt>
      <trkpt lat="49.27604" lon="1.12412">
        <ele>118</ele>
        <time>2014-06-08T13:16:21Z</time>
      </trkpt>
      <trkpt lat="49.27603" lon="1.12427">
        <ele>118</ele>
        <time>2014-06-08T13:16:28Z</time>
      </trkpt>
      <trkpt lat="49.27603" lon="1.12433">
        <ele>118</ele>
        <time>2014-06-08T13:16:31Z</time>
      </trkpt>
      <trkpt lat="49.27604" lon="1.12444">
        <ele>118</ele>
        <time>2014-06-08T13:16:36Z</time>
      </trkpt>
      <trkpt lat="49.27603" lon="1.12451">
        <ele>118</ele>
        <time>2014-06-08T13:16:40Z</time>
      </trkpt>
      <trkpt lat="49.27604" lon="1.12465">
        <ele>118</ele>
        <time>2014-06-08T13:16:48Z</time>
      </trkpt>
      <trkpt lat="49.27604" lon="1.12483">
        <ele>118</ele>
        <time>2014-06-08T13:16:57Z</time>
      </trkpt>
      <trkpt lat="49.27601" lon="1.12498">
        <ele>118</ele>
        <time>2014-06-08T13:17:05Z</time>
      </trkpt>
      <trkpt lat="49.27598" lon="1.12511">
        <ele>118</ele>
        <time>2014-06-08T13:17:15Z</time>
      </trkpt>
      <trkpt lat="49.27597" lon="1.12517">
        <ele>117</ele>
        <time>2014-06-08T13:17:27Z</time>
      </trkpt>
      <trkpt lat="49.27597" lon="1.12518">
        <ele>118</ele>
        <time>2014-06-08T13:17:28Z</time>
      </trkpt>
      <trkpt lat="49.27598" lon="1.12534">
        <ele>117</ele>
        <time>2014-06-08T13:17:36Z</time>
      </trkpt>
      <trkpt lat="49.27593" lon="1.12553">
        <ele>117</ele>
        <time>2014-06-08T13:17:46Z</time>
      </trkpt>
      <trkpt lat="49.2759" lon="1.12571">
        <ele>117</ele>
        <time>2014-06-08T13:17:55Z</time>
      </trkpt>
      <trkpt lat="49.27592" lon="1.12584">
        <ele>117</ele>
        <time>2014-06-08T13:18:02Z</time>
      </trkpt>
      <trkpt lat="49.27589" lon="1.12603">
        <ele>117</ele>
        <time>2014-06-08T13:18:13Z</time>
      </trkpt>
      <trkpt lat="49.27586" lon="1.12623">
        <ele>117</ele>
        <time>2014-06-08T13:18:24Z</time>
      </trkpt>
      <trkpt lat="49.27586" lon="1.12625">
        <ele>117</ele>
        <time>2014-06-08T13:18:25Z</time>
      </trkpt>
      <trkpt lat="49.27585" lon="1.12644">
        <ele>117</ele>
        <time>2014-06-08T13:18:34Z</time>
      </trkpt>
      <trkpt lat="49.27584" lon="1.12649">
        <ele>117</ele>
        <time>2014-06-08T13:18:37Z</time>
      </trkpt>
      <trkpt lat="49.27585" lon="1.12651">
        <ele>117</ele>
        <time>2014-06-08T13:18:39Z</time>
      </trkpt>
      <trkpt lat="49.27582" lon="1.12672">
        <ele>116</ele>
        <time>2014-06-08T13:18:48Z</time>
      </trkpt>
      <trkpt lat="49.27578" lon="1.12694">
        <ele>116</ele>
        <time>2014-06-08T13:18:57Z</time>
      </trkpt>
      <trkpt lat="49.27578" lon="1.12697">
        <ele>116</ele>
        <time>2014-06-08T13:18:59Z</time>
      </trkpt>
      <trkpt lat="49.27572" lon="1.12716">
        <ele>116</ele>
        <time>2014-06-08T13:19:09Z</time>
      </trkpt>
      <trkpt lat="49.27572" lon="1.1272">
        <ele>116</ele>
        <time>2014-06-08T13:19:11Z</time>
      </trkpt>
      <trkpt lat="49.2757" lon="1.12738">
        <ele>116</ele>
        <time>2014-06-08T13:19:20Z</time>
      </trkpt>
      <trkpt lat="49.27571" lon="1.12755">
        <ele>116</ele>
        <time>2014-06-08T13:19:30Z</time>
      </trkpt>
      <trkpt lat="49.27569" lon="1.12764">
        <ele>116</ele>
        <time>2014-06-08T13:19:40Z</time>
      </trkpt>
      <trkpt lat="49.27568" lon="1.12768">
        <ele>116</ele>
        <time>2014-06-08T13:19:47Z</time>
      </trkpt>
      <trkpt lat="49.27568" lon="1.12769">
        <ele>116</ele>
        <time>2014-06-08T13:19:48Z</time>
      </trkpt>
      <trkpt lat="49.27567" lon="1.12773">
        <ele>116</ele>
        <time>2014-06-08T13:19:50Z</time>
      </trkpt>
      <trkpt lat="49.27566" lon="1.12777">
        <ele>116</ele>
        <time>2014-06-08T13:19:52Z</time>
      </trkpt>
      <trkpt lat="49.27566" lon="1.128">
        <ele>116</ele>
        <time>2014-06-08T13:20:04Z</time>
      </trkpt>
      <trkpt lat="49.27571" lon="1.12812">
        <ele>116</ele>
        <time>2014-06-08T13:20:13Z</time>
      </trkpt>
      <trkpt lat="49.27577" lon="1.1282">
        <ele>116</ele>
        <time>2014-06-08T13:20:21Z</time>
      </trkpt>
      <trkpt lat="49.27592" lon="1.12834">
        <ele>115</ele>
        <time>2014-06-08T13:20:35Z</time>
      </trkpt>
      <trkpt lat="49.27611" lon="1.12855">
        <ele>114</ele>
        <time>2014-06-08T13:20:51Z</time>
      </trkpt>
      <trkpt lat="49.2762" lon="1.12872">
        <ele>114</ele>
        <time>2014-06-08T13:21:02Z</time>
      </trkpt>
      <trkpt lat="49.27632" lon="1.12883">
        <ele>113</ele>
        <time>2014-06-08T13:21:13Z</time>
      </trkpt>
      <trkpt lat="49.27634" lon="1.12886">
        <ele>113</ele>
        <time>2014-06-08T13:21:15Z</time>
      </trkpt>
      <trkpt lat="49.27649" lon="1.12901">
        <ele>113</ele>
        <time>2014-06-08T13:21:28Z</time>
      </trkpt>
      <trkpt lat="49.27662" lon="1.12912">
        <ele>112</ele>
        <time>2014-06-08T13:21:40Z</time>
      </trkpt>
      <trkpt lat="49.27674" lon="1.1293">
        <ele>112</ele>
        <time>2014-06-08T13:21:52Z</time>
      </trkpt>
      <trkpt lat="49.27675" lon="1.12931">
        <ele>111</ele>
        <time>2014-06-08T13:21:53Z</time>
      </trkpt>
      <trkpt lat="49.2769" lon="1.12952">
        <ele>111</ele>
        <time>2014-06-08T13:22:06Z</time>
      </trkpt>
      <trkpt lat="49.277" lon="1.12965">
        <ele>110</ele>
        <time>2014-06-08T13:22:18Z</time>
      </trkpt>
      <trkpt lat="49.27709" lon="1.12982">
        <ele>110</ele>
        <time>2014-06-08T13:22:31Z</time>
      </trkpt>
      <trkpt lat="49.27721" lon="1.12996">
        <ele>109</ele>
        <time>2014-06-08T13:22:44Z</time>
      </trkpt>
      <trkpt lat="49.27734" lon="1.13011">
        <ele>109</ele>
        <time>2014-06-08T13:22:56Z</time>
      </trkpt>
      <trkpt lat="49.2775" lon="1.13027">
        <ele>108</ele>
        <time>2014-06-08T13:23:08Z</time>
      </trkpt>
      <trkpt lat="49.27761" lon="1.13039">
        <ele>107</ele>
        <time>2014-06-08T13:23:19Z</time>
      </trkpt>
      <trkpt lat="49.27762" lon="1.13041">
        <ele>107</ele>
        <time>2014-06-08T13:23:20Z</time>
      </trkpt>
      <trkpt lat="49.27757" lon="1.13056">
        <ele>106</ele>
        <time>2014-06-08T13:23:32Z</time>
      </trkpt>
      <trkpt lat="49.27744" lon="1.13065">
        <ele>106</ele>
        <time>2014-06-08T13:23:41Z</time>
      </trkpt>
      <trkpt lat="49.27726" lon="1.13063">
        <ele>106</ele>
        <time>2014-06-08T13:23:53Z</time>
      </trkpt>
      <trkpt lat="49.27721" lon="1.13063">
        <ele>107</ele>
        <time>2014-06-08T13:24:05Z</time>
      </trkpt>
      <trkpt lat="49.27721" lon="1.13063">
        <ele>107</ele>
        <time>2014-06-08T13:24:06Z</time>
      </trkpt>
      <trkpt lat="49.27708" lon="1.13063">
        <ele>107</ele>
        <time>2014-06-08T13:24:19Z</time>
      </trkpt>
      <trkpt lat="49.27706" lon="1.13064">
        <ele>107</ele>
        <time>2014-06-08T13:24:21Z</time>
      </trkpt>
      <trkpt lat="49.27691" lon="1.13077">
        <ele>108</ele>
        <time>2014-06-08T13:24:35Z</time>
      </trkpt>
      <trkpt lat="49.27676" lon="1.13086">
        <ele>109</ele>
        <time>2014-06-08T13:24:49Z</time>
      </trkpt>
      <trkpt lat="49.27666" lon="1.13093">
        <ele>109</ele>
        <time>2014-06-08T13:24:59Z</time>
      </trkpt>
      <trkpt lat="49.27656" lon="1.131">
        <ele>110</ele>
        <time>2014-06-08T13:25:11Z</time>
      </trkpt>
      <trkpt lat="49.27645" lon="1.13107">
        <ele>111</ele>
        <time>2014-06-08T13:25:23Z</time>
      </trkpt>
      <trkpt lat="49.27634" lon="1.13114">
        <ele>111</ele>
        <time>2014-06-08T13:25:33Z</time>
      </trkpt>
      <trkpt lat="49.27623" lon="1.13124">
        <ele>112</ele>
        <time>2014-06-08T13:25:43Z</time>
      </trkpt>
      <trkpt lat="49.27616" lon="1.13129">
        <ele>113</ele>
        <time>2014-06-08T13:25:53Z</time>
      </trkpt>
      <trkpt lat="49.27606" lon="1.13138">
        <ele>114</ele>
        <time>2014-06-08T13:26:04Z</time>
      </trkpt>
      <trkpt lat="49.27592" lon="1.13146">
        <ele>115</ele>
        <time>2014-06-08T13:26:15Z</time>
      </trkpt>
      <trkpt lat="49.2758" lon="1.13154">
        <ele>116</ele>
        <time>2014-06-08T13:26:26Z</time>
      </trkpt>
      <trkpt lat="49.27577" lon="1.13157">
        <ele>116</ele>
        <time>2014-06-08T13:26:36Z</time>
      </trkpt>
      <trkpt lat="49.27569" lon="1.13161">
        <ele>116</ele>
        <time>2014-06-08T13:26:44Z</time>
      </trkpt>
      <trkpt lat="49.2756" lon="1.1317">
        <ele>117</ele>
        <time>2014-06-08T13:26:55Z</time>
      </trkpt>
      <trkpt lat="49.27543" lon="1.13184">
        <ele>117</ele>
        <time>2014-06-08T13:27:06Z</time>
      </trkpt>
      <trkpt lat="49.27535" lon="1.13195">
        <ele>119</ele>
        <time>2014-06-08T13:27:16Z</time>
      </trkpt>
      <trkpt lat="49.27533" lon="1.13198">
        <ele>119</ele>
        <time>2014-06-08T13:27:18Z</time>
      </trkpt>
      <trkpt lat="49.27529" lon="1.13203">
        <ele>119</ele>
        <time>2014-06-08T13:27:22Z</time>
      </trkpt>
      <trkpt lat="49.27527" lon="1.13209">
        <ele>120</ele>
        <time>2014-06-08T13:27:26Z</time>
      </trkpt>
      <trkpt lat="49.2752" lon="1.13227">
        <ele>120</ele>
        <time>2014-06-08T13:27:38Z</time>
      </trkpt>
      <trkpt lat="49.27519" lon="1.13231">
        <ele>120</ele>
        <time>2014-06-08T13:27:40Z</time>
      </trkpt>
      <trkpt lat="49.27518" lon="1.13242">
        <ele>120</ele>
        <time>2014-06-08T13:27:46Z</time>
      </trkpt>
      <trkpt lat="49.27517" lon="1.13254">
        <ele>121</ele>
        <time>2014-06-08T13:27:54Z</time>
      </trkpt>
      <trkpt lat="49.27516" lon="1.13258">
        <ele>121</ele>
        <time>2014-06-08T13:27:57Z</time>
      </trkpt>
      <trkpt lat="49.27517" lon="1.13271">
        <ele>121</ele>
        <time>2014-06-08T13:28:07Z</time>
      </trkpt>
      <trkpt lat="49.27515" lon="1.1329">
        <ele>122</ele>
        <time>2014-06-08T13:28:16Z</time>
      </trkpt>
      <trkpt lat="49.27513" lon="1.13306">
        <ele>122</ele>
        <time>2014-06-08T13:28:25Z</time>
      </trkpt>
      <trkpt lat="49.27511" lon="1.13311">
        <ele>122</ele>
        <time>2014-06-08T13:28:27Z</time>
      </trkpt>
      <trkpt lat="49.27513" lon="1.13324">
        <ele>123</ele>
        <time>2014-06-08T13:28:40Z</time>
      </trkpt>
      <trkpt lat="49.27513" lon="1.13325">
        <ele>123</ele>
        <time>2014-06-08T13:28:45Z</time>
      </trkpt>
      <trkpt lat="49.27512" lon="1.13339">
        <ele>123</ele>
        <time>2014-06-08T13:28:54Z</time>
      </trkpt>
      <trkpt lat="49.27507" lon="1.13361">
        <ele>123</ele>
        <time>2014-06-08T13:29:05Z</time>
      </trkpt>
      <trkpt lat="49.27503" lon="1.1338">
        <ele>123</ele>
        <time>2014-06-08T13:29:14Z</time>
      </trkpt>
      <trkpt lat="49.27504" lon="1.13394">
        <ele>124</ele>
        <time>2014-06-08T13:29:21Z</time>
      </trkpt>
      <trkpt lat="49.275" lon="1.13414">
        <ele>124</ele>
        <time>2014-06-08T13:29:34Z</time>
      </trkpt>
      <trkpt lat="49.27498" lon="1.13427">
        <ele>124</ele>
        <time>2014-06-08T13:29:40Z</time>
      </trkpt>
      <trkpt lat="49.27498" lon="1.13443">
        <ele>124</ele>
        <time>2014-06-08T13:29:50Z</time>
      </trkpt>
      <trkpt lat="49.27498" lon="1.13452">
        <ele>124</ele>
        <time>2014-06-08T13:29:55Z</time>
      </trkpt>
      <trkpt lat="49.27497" lon="1.13463">
        <ele>125</ele>
        <time>2014-06-08T13:30:00Z</time>
      </trkpt>
      <trkpt lat="49.27494" lon="1.13472">
        <ele>125</ele>
        <time>2014-06-08T13:30:06Z</time>
      </trkpt>
      <trkpt lat="49.27494" lon="1.13474">
        <ele>125</ele>
        <time>2014-06-08T13:30:07Z</time>
      </trkpt>
      <trkpt lat="49.27493" lon="1.13481">
        <ele>125</ele>
        <time>2014-06-08T13:30:11Z</time>
      </trkpt>
      <trkpt lat="49.27493" lon="1.1349">
        <ele>125</ele>
        <time>2014-06-08T13:30:15Z</time>
      </trkpt>
      <trkpt lat="49.27493" lon="1.13497">
        <ele>125</ele>
        <time>2014-06-08T13:30:19Z</time>
      </trkpt>
      <trkpt lat="49.27491" lon="1.13507">
        <ele>125</ele>
        <time>2014-06-08T13:30:25Z</time>
      </trkpt>
      <trkpt lat="49.27491" lon="1.13517">
        <ele>125</ele>
        <time>2014-06-08T13:30:31Z</time>
      </trkpt>
      <trkpt lat="49.2749" lon="1.13525">
        <ele>125</ele>
        <time>2014-06-08T13:30:34Z</time>
      </trkpt>
      <trkpt lat="49.27488" lon="1.13532">
        <ele>125</ele>
        <time>2014-06-08T13:30:37Z</time>
      </trkpt>
      <trkpt lat="49.27488" lon="1.13542">
        <ele>125</ele>
        <time>2014-06-08T13:30:42Z</time>
      </trkpt>
      <trkpt lat="49.27486" lon="1.13559">
        <ele>125</ele>
        <time>2014-06-08T13:30:53Z</time>
      </trkpt>
      <trkpt lat="49.27486" lon="1.13563">
        <ele>125</ele>
        <time>2014-06-08T13:30:56Z</time>
      </trkpt>
      <trkpt lat="49.27486" lon="1.13571">
        <ele>125</ele>
        <time>2014-06-08T13:31:00Z</time>
      </trkpt>
      <trkpt lat="49.27485" lon="1.13588">
        <ele>125</ele>
        <time>2014-06-08T13:31:08Z</time>
      </trkpt>
      <trkpt lat="49.2748" lon="1.13606">
        <ele>125</ele>
        <time>2014-06-08T13:31:17Z</time>
      </trkpt>
      <trkpt lat="49.2748" lon="1.13608">
        <ele>125</ele>
        <time>2014-06-08T13:31:18Z</time>
      </trkpt>
      <trkpt lat="49.27479" lon="1.13612">
        <ele>125</ele>
        <time>2014-06-08T13:31:21Z</time>
      </trkpt>
      <trkpt lat="49.27478" lon="1.1362">
        <ele>125</ele>
        <time>2014-06-08T13:31:26Z</time>
      </trkpt>
      <trkpt lat="49.27478" lon="1.13624">
        <ele>125</ele>
        <time>2014-06-08T13:31:28Z</time>
      </trkpt>
      <trkpt lat="49.27476" lon="1.13643">
        <ele>124</ele>
        <time>2014-06-08T13:31:38Z</time>
      </trkpt>
      <trkpt lat="49.27473" lon="1.13661">
        <ele>125</ele>
        <time>2014-06-08T13:31:46Z</time>
      </trkpt>
      <trkpt lat="49.27473" lon="1.13667">
        <ele>125</ele>
        <time>2014-06-08T13:31:50Z</time>
      </trkpt>
      <trkpt lat="49.27472" lon="1.13673">
        <ele>125</ele>
        <time>2014-06-08T13:31:54Z</time>
      </trkpt>
      <trkpt lat="49.27472" lon="1.13685">
        <ele>125</ele>
        <time>2014-06-08T13:32:00Z</time>
      </trkpt>
      <trkpt lat="49.27472" lon="1.13693">
        <ele>125</ele>
        <time>2014-06-08T13:32:05Z</time>
      </trkpt>
      <trkpt lat="49.2747" lon="1.13714">
        <ele>124</ele>
        <time>2014-06-08T13:32:16Z</time>
      </trkpt>
      <trkpt lat="49.2747" lon="1.13716">
        <ele>124</ele>
        <time>2014-06-08T13:32:17Z</time>
      </trkpt>
      <trkpt lat="49.27466" lon="1.13732">
        <ele>124</ele>
        <time>2014-06-08T13:32:28Z</time>
      </trkpt>
      <trkpt lat="49.27465" lon="1.13747">
        <ele>124</ele>
        <time>2014-06-08T13:32:37Z</time>
      </trkpt>
      <trkpt lat="49.27463" lon="1.13764">
        <ele>124</ele>
        <time>2014-06-08T13:32:46Z</time>
      </trkpt>
      <trkpt lat="49.27463" lon="1.13784">
        <ele>123</ele>
        <time>2014-06-08T13:32:56Z</time>
      </trkpt>
      <trkpt lat="49.27462" lon="1.13797">
        <ele>123</ele>
        <time>2014-06-08T13:33:02Z</time>
      </trkpt>
      <trkpt lat="49.27462" lon="1.13801">
        <ele>123</ele>
        <time>2014-06-08T13:33:04Z</time>
      </trkpt>
      <trkpt lat="49.27462" lon="1.1381">
        <ele>122</ele>
        <time>2014-06-08T13:33:10Z</time>
      </trkpt>
      <trkpt lat="49.27461" lon="1.13814">
        <ele>122</ele>
        <time>2014-06-08T13:33:12Z</time>
      </trkpt>
      <trkpt lat="49.2746" lon="1.13832">
        <ele>122</ele>
        <time>2014-06-08T13:33:23Z</time>
      </trkpt>
      <trkpt lat="49.27457" lon="1.13843">
        <ele>122</ele>
        <time>2014-06-08T13:33:28Z</time>
      </trkpt>
      <trkpt lat="49.27452" lon="1.13856">
        <ele>122</ele>
        <time>2014-06-08T13:33:36Z</time>
      </trkpt>
      <trkpt lat="49.27451" lon="1.13859">
        <ele>121</ele>
        <time>2014-06-08T13:33:39Z</time>
      </trkpt>
      <trkpt lat="49.2745" lon="1.13872">
        <ele>121</ele>
        <time>2014-06-08T13:33:47Z</time>
      </trkpt>
      <trkpt lat="49.2745" lon="1.13876">
        <ele>120</ele>
        <time>2014-06-08T13:33:49Z</time>
      </trkpt>
      <trkpt lat="49.27445" lon="1.13892">
        <ele>120</ele>
        <time>2014-06-08T13:33:57Z</time>
      </trkpt>
      <trkpt lat="49.27443" lon="1.13896">
        <ele>120</ele>
        <time>2014-06-08T13:33:59Z</time>
      </trkpt>
      <trkpt lat="49.27441" lon="1.13909">
        <ele>120</ele>
        <time>2014-06-08T13:34:08Z</time>
      </trkpt>
      <trkpt lat="49.2744" lon="1.13923">
        <ele>119</ele>
        <time>2014-06-08T13:34:14Z</time>
      </trkpt>
      <trkpt lat="49.27439" lon="1.1393">
        <ele>119</ele>
        <time>2014-06-08T13:34:18Z</time>
      </trkpt>
      <trkpt lat="49.27437" lon="1.13944">
        <ele>119</ele>
        <time>2014-06-08T13:34:28Z</time>
      </trkpt>
      <trkpt lat="49.27437" lon="1.13965">
        <ele>120</ele>
        <time>2014-06-08T13:34:39Z</time>
      </trkpt>
      <trkpt lat="49.27439" lon="1.13978">
        <ele>120</ele>
        <time>2014-06-08T13:34:46Z</time>
      </trkpt>
      <trkpt lat="49.27438" lon="1.14003">
        <ele>121</ele>
        <time>2014-06-08T13:34:55Z</time>
      </trkpt>
      <trkpt lat="49.27436" lon="1.14018">
        <ele>121</ele>
        <time>2014-06-08T13:35:03Z</time>
      </trkpt>
      <trkpt lat="49.27435" lon="1.14034">
        <ele>121</ele>
        <time>2014-06-08T13:35:12Z</time>
      </trkpt>
      <trkpt lat="49.27435" lon="1.14036">
        <ele>121</ele>
        <time>2014-06-08T13:35:13Z</time>
      </trkpt>
      <trkpt lat="49.27434" lon="1.14054">
        <ele>121</ele>
        <time>2014-06-08T13:35:22Z</time>
      </trkpt>
      <trkpt lat="49.27433" lon="1.1406">
        <ele>121</ele>
        <time>2014-06-08T13:35:25Z</time>
      </trkpt>
      <trkpt lat="49.27431" lon="1.14062">
        <ele>122</ele>
        <time>2014-06-08T13:35:27Z</time>
      </trkpt>
      <trkpt lat="49.2743" lon="1.14084">
        <ele>122</ele>
        <time>2014-06-08T13:35:39Z</time>
      </trkpt>
      <trkpt lat="49.27427" lon="1.14105">
        <ele>122</ele>
        <time>2014-06-08T13:35:50Z</time>
      </trkpt>
      <trkpt lat="49.27427" lon="1.1412">
        <ele>122</ele>
        <time>2014-06-08T13:35:59Z</time>
      </trkpt>
      <trkpt lat="49.27426" lon="1.14136">
        <ele>122</ele>
        <time>2014-06-08T13:36:08Z</time>
      </trkpt>
      <trkpt lat="49.27435" lon="1.14149">
        <ele>122</ele>
        <time>2014-06-08T13:36:18Z</time>
      </trkpt>
      <trkpt lat="49.27451" lon="1.14152">
        <ele>121</ele>
        <time>2014-06-08T13:36:29Z</time>
      </trkpt>
      <trkpt lat="49.27459" lon="1.14156">
        <ele>121</ele>
        <time>2014-06-08T13:36:37Z</time>
      </trkpt>
      <trkpt lat="49.27472" lon="1.14162">
        <ele>120</ele>
        <time>2014-06-08T13:36:46Z</time>
      </trkpt>
      <trkpt lat="49.27479" lon="1.14167">
        <ele>120</ele>
        <time>2014-06-08T13:36:53Z</time>
      </trkpt>
      <trkpt lat="49.27485" lon="1.14169">
        <ele>119</ele>
        <time>2014-06-08T13:36:59Z</time>
      </trkpt>
      <trkpt lat="49.27494" lon="1.14166">
        <ele>119</ele>
        <time>2014-06-08T13:37:09Z</time>
      </trkpt>
      <trkpt lat="49.27494" lon="1.14167">
        <ele>119</ele>
        <time>2014-06-08T13:37:18Z</time>
      </trkpt>
      <trkpt lat="49.27502" lon="1.1417">
        <ele>119</ele>
        <time>2014-06-08T13:37:26Z</time>
      </trkpt>
      <trkpt lat="49.27504" lon="1.14172">
        <ele>118</ele>
        <time>2014-06-08T13:37:28Z</time>
      </trkpt>
      <trkpt lat="49.27509" lon="1.14175">
        <ele>118</ele>
        <time>2014-06-08T13:37:32Z</time>
      </trkpt>
      <trkpt lat="49.27522" lon="1.14178">
        <ele>117</ele>
        <time>2014-06-08T13:37:43Z</time>
      </trkpt>
      <trkpt lat="49.27523" lon="1.14178">
        <ele>117</ele>
        <time>2014-06-08T13:37:44Z</time>
      </trkpt>
      <trkpt lat="49.27532" lon="1.14176">
        <ele>116</ele>
        <time>2014-06-08T13:37:54Z</time>
      </trkpt>
      <trkpt lat="49.27532" lon="1.14178">
        <ele>116</ele>
        <time>2014-06-08T13:38:08Z</time>
      </trkpt>
      <trkpt lat="49.27533" lon="1.14179">
        <ele>116</ele>
        <time>2014-06-08T13:38:32Z</time>
      </trkpt>
      <trkpt lat="49.27536" lon="1.14182">
        <ele>116</ele>
        <time>2014-06-08T13:38:47Z</time>
      </trkpt>
      <trkpt lat="49.27552" lon="1.14184">
        <ele>116</ele>
        <time>2014-06-08T13:38:56Z</time>
      </trkpt>
      <trkpt lat="49.27559" lon="1.14184">
        <ele>115</ele>
        <time>2014-06-08T13:39:03Z</time>
      </trkpt>
      <trkpt lat="49.27562" lon="1.14187">
        <ele>115</ele>
        <time>2014-06-08T13:39:06Z</time>
      </trkpt>
      <trkpt lat="49.27575" lon="1.14187">
        <ele>113</ele>
        <time>2014-06-08T13:39:17Z</time>
      </trkpt>
      <trkpt lat="49.2758" lon="1.14183">
        <ele>112</ele>
        <time>2014-06-08T13:39:24Z</time>
      </trkpt>
      <trkpt lat="49.2759" lon="1.14181">
        <ele>111</ele>
        <time>2014-06-08T13:39:32Z</time>
      </trkpt>
      <trkpt lat="49.27592" lon="1.14179">
        <ele>110</ele>
        <time>2014-06-08T13:39:34Z</time>
      </trkpt>
      <trkpt lat="49.27605" lon="1.14167">
        <ele>109</ele>
        <time>2014-06-08T13:39:43Z</time>
      </trkpt>
      <trkpt lat="49.27607" lon="1.14165">
        <ele>108</ele>
        <time>2014-06-08T13:39:45Z</time>
      </trkpt>
      <trkpt lat="49.27611" lon="1.14162">
        <ele>108</ele>
        <time>2014-06-08T13:39:48Z</time>
      </trkpt>
      <trkpt lat="49.27615" lon="1.14149">
        <ele>107</ele>
        <time>2014-06-08T13:39:55Z</time>
      </trkpt>
      <trkpt lat="49.2762" lon="1.14136">
        <ele>106</ele>
        <time>2014-06-08T13:40:04Z</time>
      </trkpt>
      <trkpt lat="49.27624" lon="1.14132">
        <ele>106</ele>
        <time>2014-06-08T13:40:07Z</time>
      </trkpt>
      <trkpt lat="49.27637" lon="1.14123">
        <ele>104</ele>
        <time>2014-06-08T13:40:18Z</time>
      </trkpt>
      <trkpt lat="49.27645" lon="1.14116">
        <ele>104</ele>
        <time>2014-06-08T13:40:25Z</time>
      </trkpt>
      <trkpt lat="49.2765" lon="1.14109">
        <ele>103</ele>
        <time>2014-06-08T13:40:29Z</time>
      </trkpt>
      <trkpt lat="49.27652" lon="1.14106">
        <ele>103</ele>
        <time>2014-06-08T13:40:31Z</time>
      </trkpt>
      <trkpt lat="49.27661" lon="1.14097">
        <ele>103</ele>
        <time>2014-06-08T13:40:39Z</time>
      </trkpt>
      <trkpt lat="49.27669" lon="1.14091">
        <ele>102</ele>
        <time>2014-06-08T13:40:47Z</time>
      </trkpt>
      <trkpt lat="49.27674" lon="1.14092">
        <ele>102</ele>
        <time>2014-06-08T13:40:50Z</time>
      </trkpt>
      <trkpt lat="49.2768" lon="1.14089">
        <ele>102</ele>
        <time>2014-06-08T13:40:54Z</time>
      </trkpt>
      <trkpt lat="49.277" lon="1.14088">
        <ele>101</ele>
        <time>2014-06-08T13:41:08Z</time>
      </trkpt>
      <trkpt lat="49.27712" lon="1.14089">
        <ele>100</ele>
        <time>2014-06-08T13:41:18Z</time>
      </trkpt>
      <trkpt lat="49.27722" lon="1.14085">
        <ele>100</ele>
        <time>2014-06-08T13:41:28Z</time>
      </trkpt>
      <trkpt lat="49.27735" lon="1.14081">
        <ele>100</ele>
        <time>2014-06-08T13:41:40Z</time>
      </trkpt>
      <trkpt lat="49.27751" lon="1.14081">
        <ele>99</ele>
        <time>2014-06-08T13:41:52Z</time>
      </trkpt>
      <trkpt lat="49.27764" lon="1.14082">
        <ele>98</ele>
        <time>2014-06-08T13:42:02Z</time>
      </trkpt>
      <trkpt lat="49.27775" lon="1.1408">
        <ele>97</ele>
        <time>2014-06-08T13:42:12Z</time>
      </trkpt>
      <trkpt lat="49.27787" lon="1.14077">
        <ele>97</ele>
        <time>2014-06-08T13:42:22Z</time>
      </trkpt>
      <trkpt lat="49.27788" lon="1.14076">
        <ele>96</ele>
        <time>2014-06-08T13:42:23Z</time>
      </trkpt>
      <trkpt lat="49.27798" lon="1.14074">
        <ele>96</ele>
        <time>2014-06-08T13:42:31Z</time>
      </trkpt>
      <trkpt lat="49.27811" lon="1.14075">
        <ele>95</ele>
        <time>2014-06-08T13:42:41Z</time>
      </trkpt>
      <trkpt lat="49.27821" lon="1.14076">
        <ele>95</ele>
        <time>2014-06-08T13:42:50Z</time>
      </trkpt>
      <trkpt lat="49.27828" lon="1.14081">
        <ele>94</ele>
        <time>2014-06-08T13:43:01Z</time>
      </trkpt>
      <trkpt lat="49.2783" lon="1.14082">
        <ele>94</ele>
        <time>2014-06-08T13:43:02Z</time>
      </trkpt>
      <trkpt lat="49.27836" lon="1.14081">
        <ele>94</ele>
        <time>2014-06-08T13:43:08Z</time>
      </trkpt>
      <trkpt lat="49.27845" lon="1.14085">
        <ele>94</ele>
        <time>2014-06-08T13:43:16Z</time>
      </trkpt>
      <trkpt lat="49.27863" lon="1.14087">
        <ele>94</ele>
        <time>2014-06-08T13:43:30Z</time>
      </trkpt>
      <trkpt lat="49.2787" lon="1.14088">
        <ele>94</ele>
        <time>2014-06-08T13:43:42Z</time>
      </trkpt>
      <trkpt lat="49.27873" lon="1.1409">
        <ele>93</ele>
        <time>2014-06-08T13:43:56Z</time>
      </trkpt>
      <trkpt lat="49.27874" lon="1.1409">
        <ele>93</ele>
        <time>2014-06-08T13:43:57Z</time>
      </trkpt>
      <trkpt lat="49.27885" lon="1.14095">
        <ele>93</ele>
        <time>2014-06-08T13:44:05Z</time>
      </trkpt>
      <trkpt lat="49.27903" lon="1.14096">
        <ele>92</ele>
        <time>2014-06-08T13:44:18Z</time>
      </trkpt>
      <trkpt lat="49.27908" lon="1.14097">
        <ele>92</ele>
        <time>2014-06-08T13:44:22Z</time>
      </trkpt>
      <trkpt lat="49.27914" lon="1.14099">
        <ele>92</ele>
        <time>2014-06-08T13:44:28Z</time>
      </trkpt>
      <trkpt lat="49.27923" lon="1.14102">
        <ele>91</ele>
        <time>2014-06-08T13:44:36Z</time>
      </trkpt>
      <trkpt lat="49.27936" lon="1.14104">
        <ele>91</ele>
        <time>2014-06-08T13:44:46Z</time>
      </trkpt>
      <trkpt lat="49.27943" lon="1.14108">
        <ele>91</ele>
        <time>2014-06-08T13:44:55Z</time>
      </trkpt>
      <trkpt lat="49.2795" lon="1.14109">
        <ele>91</ele>
        <time>2014-06-08T13:45:00Z</time>
      </trkpt>
      <trkpt lat="49.27965" lon="1.14114">
        <ele>90</ele>
        <time>2014-06-08T13:45:09Z</time>
      </trkpt>
      <trkpt lat="49.27968" lon="1.14116">
        <ele>90</ele>
        <time>2014-06-08T13:45:11Z</time>
      </trkpt>
      <trkpt lat="49.27973" lon="1.1412">
        <ele>90</ele>
        <time>2014-06-08T13:45:15Z</time>
      </trkpt>
      <trkpt lat="49.27974" lon="1.14123">
        <ele>90</ele>
        <time>2014-06-08T13:45:17Z</time>
      </trkpt>
      <trkpt lat="49.2798" lon="1.14127">
        <ele>90</ele>
        <time>2014-06-08T13:45:21Z</time>
      </trkpt>
      <trkpt lat="49.2799" lon="1.14142">
        <ele>89</ele>
        <time>2014-06-08T13:45:30Z</time>
      </trkpt>
      <trkpt lat="49.27997" lon="1.14154">
        <ele>88</ele>
        <time>2014-06-08T13:45:39Z</time>
      </trkpt>
      <trkpt lat="49.28003" lon="1.14165">
        <ele>88</ele>
        <time>2014-06-08T13:45:48Z</time>
      </trkpt>
      <trkpt lat="49.28006" lon="1.14171">
        <ele>88</ele>
        <time>2014-06-08T13:45:52Z</time>
      </trkpt>
      <trkpt lat="49.28013" lon="1.1418">
        <ele>88</ele>
        <time>2014-06-08T13:45:58Z</time>
      </trkpt>
      <trkpt lat="49.28028" lon="1.14194">
        <ele>87</ele>
        <time>2014-06-08T13:46:10Z</time>
      </trkpt>
      <trkpt lat="49.28038" lon="1.14205">
        <ele>86</ele>
        <time>2014-06-08T13:46:21Z</time>
      </trkpt>
      <trkpt lat="49.28039" lon="1.14206">
        <ele>86</ele>
        <time>2014-06-08T13:46:23Z</time>
      </trkpt>
      <trkpt lat="49.28044" lon="1.14216">
        <ele>85</ele>
        <time>2014-06-08T13:46:33Z</time>
      </trkpt>
      <trkpt lat="49.28046" lon="1.14219">
        <ele>85</ele>
        <time>2014-06-08T13:46:35Z</time>
      </trkpt>
      <trkpt lat="49.28052" lon="1.14222">
        <ele>85</ele>
        <time>2014-06-08T13:46:37Z</time>
      </trkpt>
      <trkpt lat="49.28061" lon="1.14236">
        <ele>85</ele>
        <time>2014-06-08T13:46:46Z</time>
      </trkpt>
      <trkpt lat="49.28063" lon="1.14238">
        <ele>85</ele>
        <time>2014-06-08T13:46:48Z</time>
      </trkpt>
      <trkpt lat="49.2807" lon="1.14248">
        <ele>84</ele>
        <time>2014-06-08T13:46:56Z</time>
      </trkpt>
      <trkpt lat="49.28072" lon="1.14252">
        <ele>84</ele>
        <time>2014-06-08T13:46:58Z</time>
      </trkpt>
      <trkpt lat="49.28075" lon="1.14255">
        <ele>84</ele>
        <time>2014-06-08T13:47:01Z</time>
      </trkpt>
      <trkpt lat="49.2808" lon="1.14268">
        <ele>83</ele>
        <time>2014-06-08T13:47:09Z</time>
      </trkpt>
      <trkpt lat="49.28085" lon="1.14275">
        <ele>83</ele>
        <time>2014-06-08T13:47:13Z</time>
      </trkpt>
      <trkpt lat="49.28089" lon="1.14279">
        <ele>83</ele>
        <time>2014-06-08T13:47:16Z</time>
      </trkpt>
      <trkpt lat="49.28099" lon="1.14288">
        <ele>83</ele>
        <time>2014-06-08T13:47:25Z</time>
      </trkpt>
      <trkpt lat="49.28106" lon="1.14294">
        <ele>83</ele>
        <time>2014-06-08T13:47:29Z</time>
      </trkpt>
      <trkpt lat="49.28111" lon="1.14302">
        <ele>82</ele>
        <time>2014-06-08T13:47:34Z</time>
      </trkpt>
      <trkpt lat="49.28115" lon="1.14306">
        <ele>82</ele>
        <time>2014-06-08T13:47:37Z</time>
      </trkpt>
      <trkpt lat="49.28121" lon="1.14311">
        <ele>82</ele>
        <time>2014-06-08T13:47:42Z</time>
      </trkpt>
      <trkpt lat="49.28129" lon="1.1432">
        <ele>82</ele>
        <time>2014-06-08T13:47:49Z</time>
      </trkpt>
      <trkpt lat="49.28137" lon="1.1433">
        <ele>81</ele>
        <time>2014-06-08T13:47:58Z</time>
      </trkpt>
      <trkpt lat="49.28145" lon="1.14338">
        <ele>81</ele>
        <time>2014-06-08T13:48:09Z</time>
      </trkpt>
      <trkpt lat="49.28153" lon="1.14345">
        <ele>80</ele>
        <time>2014-06-08T13:48:20Z</time>
      </trkpt>
      <trkpt lat="49.28155" lon="1.14349">
        <ele>80</ele>
        <time>2014-06-08T13:48:31Z</time>
      </trkpt>
      <trkpt lat="49.28158" lon="1.14353">
        <ele>80</ele>
        <time>2014-06-08T13:48:34Z</time>
      </trkpt>
      <trkpt lat="49.28174" lon="1.14363">
        <ele>79</ele>
        <time>2014-06-08T13:48:43Z</time>
      </trkpt>
      <trkpt lat="49.28193" lon="1.14373">
        <ele>79</ele>
        <time>2014-06-08T13:48:52Z</time>
      </trkpt>
      <trkpt lat="49.28199" lon="1.14382">
        <ele>78</ele>
        <time>2014-06-08T13:49:01Z</time>
      </trkpt>
      <trkpt lat="49.282" lon="1.14383">
        <ele>78</ele>
        <time>2014-06-08T13:49:03Z</time>
      </trkpt>
      <trkpt lat="49.28206" lon="1.14391">
        <ele>78</ele>
        <time>2014-06-08T13:49:12Z</time>
      </trkpt>
      <trkpt lat="49.28215" lon="1.14395">
        <ele>78</ele>
        <time>2014-06-08T13:49:20Z</time>
      </trkpt>
      <trkpt lat="49.28217" lon="1.14397">
        <ele>78</ele>
        <time>2014-06-08T13:49:21Z</time>
      </trkpt>
      <trkpt lat="49.28225" lon="1.14402">
        <ele>77</ele>
        <time>2014-06-08T13:49:25Z</time>
      </trkpt>
      <trkpt lat="49.28237" lon="1.14409">
        <ele>77</ele>
        <time>2014-06-08T13:49:35Z</time>
      </trkpt>
      <trkpt lat="49.28246" lon="1.14419">
        <ele>76</ele>
        <time>2014-06-08T13:49:48Z</time>
      </trkpt>
      <trkpt lat="49.2826" lon="1.14433">
        <ele>76</ele>
        <time>2014-06-08T13:49:59Z</time>
      </trkpt>
      <trkpt lat="49.28265" lon="1.1444">
        <ele>76</ele>
        <time>2014-06-08T13:50:02Z</time>
      </trkpt>
      <trkpt lat="49.28281" lon="1.1445">
        <ele>75</ele>
        <time>2014-06-08T13:50:12Z</time>
      </trkpt>
      <trkpt lat="49.28285" lon="1.14455">
        <ele>75</ele>
        <time>2014-06-08T13:50:22Z</time>
      </trkpt>
      <trkpt lat="49.28292" lon="1.1447">
        <ele>74</ele>
        <time>2014-06-08T13:50:32Z</time>
      </trkpt>
      <trkpt lat="49.28293" lon="1.14473">
        <ele>74</ele>
        <time>2014-06-08T13:50:35Z</time>
      </trkpt>
      <trkpt lat="49.28311" lon="1.14498">
        <ele>74</ele>
        <time>2014-06-08T13:50:47Z</time>
      </trkpt>
      <trkpt lat="49.28312" lon="1.14501">
        <ele>74</ele>
        <time>2014-06-08T13:50:48Z</time>
      </trkpt>
      <trkpt lat="49.28326" lon="1.14511">
        <ele>73</ele>
        <time>2014-06-08T13:50:56Z</time>
      </trkpt>
      <trkpt lat="49.28334" lon="1.14526">
        <ele>73</ele>
        <time>2014-06-08T13:51:07Z</time>
      </trkpt>
      <trkpt lat="49.28339" lon="1.14546">
        <ele>72</ele>
        <time>2014-06-08T13:51:17Z</time>
      </trkpt>
      <trkpt lat="49.28344" lon="1.14563">
        <ele>72</ele>
        <time>2014-06-08T13:51:26Z</time>
      </trkpt>
      <trkpt lat="49.28346" lon="1.14565">
        <ele>72</ele>
        <time>2014-06-08T13:51:27Z</time>
      </trkpt>
      <trkpt lat="49.28348" lon="1.14571">
        <ele>71</ele>
        <time>2014-06-08T13:51:30Z</time>
      </trkpt>
      <trkpt lat="49.28354" lon="1.14582">
        <ele>71</ele>
        <time>2014-06-08T13:51:38Z</time>
      </trkpt>
      <trkpt lat="49.28361" lon="1.14586">
        <ele>71</ele>
        <time>2014-06-08T13:51:44Z</time>
      </trkpt>
      <trkpt lat="49.28366" lon="1.1459">
        <ele>71</ele>
        <time>2014-06-08T13:51:48Z</time>
      </trkpt>
      <trkpt lat="49.28369" lon="1.14598">
        <ele>71</ele>
        <time>2014-06-08T13:51:53Z</time>
      </trkpt>
      <trkpt lat="49.28371" lon="1.14601">
        <ele>71</ele>
        <time>2014-06-08T13:51:55Z</time>
      </trkpt>
      <trkpt lat="49.28373" lon="1.14605">
        <ele>70</ele>
        <time>2014-06-08T13:51:58Z</time>
      </trkpt>
      <trkpt lat="49.2838" lon="1.14619">
        <ele>70</ele>
        <time>2014-06-08T13:52:07Z</time>
      </trkpt>
      <trkpt lat="49.28385" lon="1.14629">
        <ele>70</ele>
        <time>2014-06-08T13:52:13Z</time>
      </trkpt>
      <trkpt lat="49.28386" lon="1.14634">
        <ele>70</ele>
        <time>2014-06-08T13:52:17Z</time>
      </trkpt>
      <trkpt lat="49.28389" lon="1.1464">
        <ele>70</ele>
        <time>2014-06-08T13:52:21Z</time>
      </trkpt>
      <trkpt lat="49.28395" lon="1.14654">
        <ele>69</ele>
        <time>2014-06-08T13:52:32Z</time>
      </trkpt>
      <trkpt lat="49.28407" lon="1.14667">
        <ele>69</ele>
        <time>2014-06-08T13:52:41Z</time>
      </trkpt>
      <trkpt lat="49.28412" lon="1.14672">
        <ele>68</ele>
        <time>2014-06-08T13:52:45Z</time>
      </trkpt>
      <trkpt lat="49.2842" lon="1.14681">
        <ele>68</ele>
        <time>2014-06-08T13:52:54Z</time>
      </trkpt>
      <trkpt lat="49.28422" lon="1.14682">
        <ele>68</ele>
        <time>2014-06-08T13:52:55Z</time>
      </trkpt>
      <trkpt lat="49.28433" lon="1.14691">
        <ele>67</ele>
        <time>2014-06-08T13:53:04Z</time>
      </trkpt>
      <trkpt lat="49.28437" lon="1.14694">
        <ele>67</ele>
        <time>2014-06-08T13:53:08Z</time>
      </trkpt>
      <trkpt lat="49.28457" lon="1.14703">
        <ele>67</ele>
        <time>2014-06-08T13:53:22Z</time>
      </trkpt>
      <trkpt lat="49.28464" lon="1.14709">
        <ele>66</ele>
        <time>2014-06-08T13:53:28Z</time>
      </trkpt>
      <trkpt lat="49.28475" lon="1.14721">
        <ele>66</ele>
        <time>2014-06-08T13:53:39Z</time>
      </trkpt>
      <trkpt lat="49.28477" lon="1.14722">
        <ele>66</ele>
        <time>2014-06-08T13:53:41Z</time>
      </trkpt>
      <trkpt lat="49.28485" lon="1.14732">
        <ele>65</ele>
        <time>2014-06-08T13:53:50Z</time>
      </trkpt>
      <trkpt lat="49.28488" lon="1.14735">
        <ele>65</ele>
        <time>2014-06-08T13:53:53Z</time>
      </trkpt>
      <trkpt lat="49.28498" lon="1.14742">
        <ele>65</ele>
        <time>2014-06-08T13:54:02Z</time>
      </trkpt>
      <trkpt lat="49.28503" lon="1.14746">
        <ele>65</ele>
        <time>2014-06-08T13:54:06Z</time>
      </trkpt>
      <trkpt lat="49.28509" lon="1.14753">
        <ele>65</ele>
        <time>2014-06-08T13:54:12Z</time>
      </trkpt>
      <trkpt lat="49.28512" lon="1.14756">
        <ele>65</ele>
        <time>2014-06-08T13:54:15Z</time>
      </trkpt>
      <trkpt lat="49.28516" lon="1.14758">
        <ele>64</ele>
        <time>2014-06-08T13:54:19Z</time>
      </trkpt>
      <trkpt lat="49.28525" lon="1.14765">
        <ele>64</ele>
        <time>2014-06-08T13:54:27Z</time>
      </trkpt>
      <trkpt lat="49.2853" lon="1.14768">
        <ele>64</ele>
        <time>2014-06-08T13:54:31Z</time>
      </trkpt>
      <trkpt lat="49.2854" lon="1.14776">
        <ele>64</ele>
        <time>2014-06-08T13:54:40Z</time>
      </trkpt>
      <trkpt lat="49.28547" lon="1.14781">
        <ele>64</ele>
        <time>2014-06-08T13:54:46Z</time>
      </trkpt>
      <trkpt lat="49.28554" lon="1.14784">
        <ele>64</ele>
        <time>2014-06-08T13:54:51Z</time>
      </trkpt>
      <trkpt lat="49.28568" lon="1.14791">
        <ele>63</ele>
        <time>2014-06-08T13:55:03Z</time>
      </trkpt>
      <trkpt lat="49.2857" lon="1.14792">
        <ele>63</ele>
        <time>2014-06-08T13:55:05Z</time>
      </trkpt>
      <trkpt lat="49.28582" lon="1.14798">
        <ele>62</ele>
        <time>2014-06-08T13:55:16Z</time>
      </trkpt>
      <trkpt lat="49.28594" lon="1.14808">
        <ele>62</ele>
        <time>2014-06-08T13:55:28Z</time>
      </trkpt>
      <trkpt lat="49.286" lon="1.14823">
        <ele>62</ele>
        <time>2014-06-08T13:55:39Z</time>
      </trkpt>
      <trkpt lat="49.28598" lon="1.14837">
        <ele>63</ele>
        <time>2014-06-08T13:55:49Z</time>
      </trkpt>
      <trkpt lat="49.28599" lon="1.14854">
        <ele>63</ele>
        <time>2014-06-08T13:55:59Z</time>
      </trkpt>
      <trkpt lat="49.286" lon="1.14869">
        <ele>64</ele>
        <time>2014-06-08T13:56:09Z</time>
      </trkpt>
      <trkpt lat="49.28601" lon="1.14882">
        <ele>64</ele>
        <time>2014-06-08T13:56:18Z</time>
      </trkpt>
      <trkpt lat="49.28596" lon="1.14902">
        <ele>65</ele>
        <time>2014-06-08T13:56:26Z</time>
      </trkpt>
      <trkpt lat="49.28593" lon="1.14915">
        <ele>65</ele>
        <time>2014-06-08T13:56:34Z</time>
      </trkpt>
      <trkpt lat="49.28592" lon="1.14934">
        <ele>66</ele>
        <time>2014-06-08T13:56:46Z</time>
      </trkpt>
      <trkpt lat="49.28587" lon="1.14952">
        <ele>66</ele>
        <time>2014-06-08T13:56:55Z</time>
      </trkpt>
      <trkpt lat="49.28585" lon="1.14958">
        <ele>66</ele>
        <time>2014-06-08T13:56:57Z</time>
      </trkpt>
      <trkpt lat="49.28582" lon="1.14976">
        <ele>66</ele>
        <time>2014-06-08T13:57:07Z</time>
      </trkpt>
      <trkpt lat="49.28579" lon="1.15001">
        <ele>67</ele>
        <time>2014-06-08T13:57:18Z</time>
      </trkpt>
      <trkpt lat="49.28578" lon="1.15018">
        <ele>67</ele>
        <time>2014-06-08T13:57:27Z</time>
      </trkpt>
      <trkpt lat="49.28576" lon="1.15034">
        <ele>67</ele>
        <time>2014-06-08T13:57:35Z</time>
      </trkpt>
      <trkpt lat="49.28575" lon="1.15051">
        <ele>67</ele>
        <time>2014-06-08T13:57:45Z</time>
      </trkpt>
      <trkpt lat="49.28577" lon="1.15064">
        <ele>67</ele>
        <time>2014-06-08T13:57:53Z</time>
      </trkpt>
      <trkpt lat="49.28577" lon="1.15065">
        <ele>67</ele>
        <time>2014-06-08T13:57:54Z</time>
      </trkpt>
      <trkpt lat="49.28578" lon="1.15071">
        <ele>67</ele>
        <time>2014-06-08T13:57:58Z</time>
      </trkpt>
      <trkpt lat="49.28578" lon="1.15075">
        <ele>67</ele>
        <time>2014-06-08T13:58:00Z</time>
      </trkpt>
      <trkpt lat="49.2858" lon="1.15089">
        <ele>67</ele>
        <time>2014-06-08T13:58:10Z</time>
      </trkpt>
      <trkpt lat="49.28577" lon="1.15105">
        <ele>67</ele>
        <time>2014-06-08T13:58:19Z</time>
      </trkpt>
      <trkpt lat="49.28572" lon="1.15125">
        <ele>67</ele>
        <time>2014-06-08T13:58:28Z</time>
      </trkpt>
      <trkpt lat="49.28565" lon="1.15141">
        <ele>67</ele>
        <time>2014-06-08T13:58:38Z</time>
      </trkpt>
      <trkpt lat="49.28565" lon="1.15148">
        <ele>67</ele>
        <time>2014-06-08T13:58:41Z</time>
      </trkpt>
      <trkpt lat="49.28567" lon="1.15171">
        <ele>67</ele>
        <time>2014-06-08T13:58:50Z</time>
      </trkpt>
      <trkpt lat="49.28566" lon="1.15186">
        <ele>67</ele>
        <time>2014-06-08T13:58:58Z</time>
      </trkpt>
      <trkpt lat="49.28564" lon="1.15207">
        <ele>67</ele>
        <time>2014-06-08T13:59:10Z</time>
      </trkpt>
      <trkpt lat="49.28564" lon="1.15208">
        <ele>67</ele>
        <time>2014-06-08T13:59:11Z</time>
      </trkpt>
      <trkpt lat="49.28562" lon="1.15224">
        <ele>67</ele>
        <time>2014-06-08T13:59:20Z</time>
      </trkpt>
      <trkpt lat="49.2856" lon="1.1524">
        <ele>67</ele>
        <time>2014-06-08T13:59:28Z</time>
      </trkpt>
      <trkpt lat="49.2856" lon="1.15242">
        <ele>67</ele>
        <time>2014-06-08T13:59:29Z</time>
      </trkpt>
      <trkpt lat="49.28557" lon="1.15256">
        <ele>67</ele>
        <time>2014-06-08T13:59:38Z</time>
      </trkpt>
      <trkpt lat="49.28556" lon="1.15266">
        <ele>67</ele>
        <time>2014-06-08T13:59:43Z</time>
      </trkpt>
      <trkpt lat="49.28557" lon="1.1527">
        <ele>67</ele>
        <time>2014-06-08T13:59:45Z</time>
      </trkpt>
      <trkpt lat="49.28557" lon="1.1528">
        <ele>67</ele>
        <time>2014-06-08T13:59:50Z</time>
      </trkpt>
      <trkpt lat="49.28557" lon="1.15294">
        <ele>67</ele>
        <time>2014-06-08T13:59:58Z</time>
      </trkpt>
      <trkpt lat="49.28553" lon="1.15311">
        <ele>67</ele>
        <time>2014-06-08T14:00:07Z</time>
      </trkpt>
      <trkpt lat="49.28551" lon="1.15318">
        <ele>67</ele>
        <time>2014-06-08T14:00:11Z</time>
      </trkpt>
      <trkpt lat="49.28551" lon="1.15322">
        <ele>67</ele>
        <time>2014-06-08T14:00:13Z</time>
      </trkpt>
      <trkpt lat="49.28551" lon="1.15331">
        <ele>67</ele>
        <time>2014-06-08T14:00:17Z</time>
      </trkpt>
      <trkpt lat="49.28552" lon="1.15337">
        <ele>67</ele>
        <time>2014-06-08T14:00:21Z</time>
      </trkpt>
      <trkpt lat="49.28551" lon="1.15355">
        <ele>68</ele>
        <time>2014-06-08T14:00:31Z</time>
      </trkpt>
      <trkpt lat="49.2855" lon="1.15358">
        <ele>68</ele>
        <time>2014-06-08T14:00:33Z</time>
      </trkpt>
      <trkpt lat="49.28548" lon="1.15377">
        <ele>67</ele>
        <time>2014-06-08T14:00:44Z</time>
      </trkpt>
      <trkpt lat="49.28545" lon="1.15396">
        <ele>68</ele>
        <time>2014-06-08T14:00:54Z</time>
      </trkpt>
      <trkpt lat="49.28543" lon="1.15408">
        <ele>68</ele>
        <time>2014-06-08T14:01:01Z</time>
      </trkpt>
      <trkpt lat="49.28543" lon="1.15412">
        <ele>68</ele>
        <time>2014-06-08T14:01:03Z</time>
      </trkpt>
      <trkpt lat="49.28544" lon="1.15415">
        <ele>68</ele>
        <time>2014-06-08T14:01:05Z</time>
      </trkpt>
      <trkpt lat="49.28544" lon="1.15434">
        <ele>68</ele>
        <time>2014-06-08T14:01:15Z</time>
      </trkpt>
      <trkpt lat="49.28544" lon="1.15438">
        <ele>68</ele>
        <time>2014-06-08T14:01:17Z</time>
      </trkpt>
      <trkpt lat="49.28542" lon="1.15453">
        <ele>68</ele>
        <time>2014-06-08T14:01:26Z</time>
      </trkpt>
      <trkpt lat="49.28541" lon="1.15469">
        <ele>68</ele>
        <time>2014-06-08T14:01:35Z</time>
      </trkpt>
      <trkpt lat="49.28538" lon="1.15484">
        <ele>68</ele>
        <time>2014-06-08T14:01:42Z</time>
      </trkpt>
      <trkpt lat="49.28538" lon="1.1549">
        <ele>68</ele>
        <time>2014-06-08T14:01:45Z</time>
      </trkpt>
      <trkpt lat="49.28538" lon="1.15498">
        <ele>68</ele>
        <time>2014-06-08T14:01:51Z</time>
      </trkpt>
      <trkpt lat="49.28537" lon="1.15517">
        <ele>68</ele>
        <time>2014-06-08T14:02:02Z</time>
      </trkpt>
      <trkpt lat="49.28541" lon="1.15536">
        <ele>68</ele>
        <time>2014-06-08T14:02:13Z</time>
      </trkpt>
      <trkpt lat="49.28549" lon="1.1554">
        <ele>68</ele>
        <time>2014-06-08T14:02:21Z</time>
      </trkpt>
      <trkpt lat="49.28551" lon="1.15543">
        <ele>68</ele>
        <time>2014-06-08T14:02:23Z</time>
      </trkpt>
      <trkpt lat="49.28562" lon="1.15547">
        <ele>68</ele>
        <time>2014-06-08T14:02:31Z</time>
      </trkpt>
      <trkpt lat="49.28567" lon="1.15548">
        <ele>68</ele>
        <time>2014-06-08T14:02:36Z</time>
      </trkpt>
      <trkpt lat="49.28579" lon="1.15553">
        <ele>67</ele>
        <time>2014-06-08T14:02:44Z</time>
      </trkpt>
      <trkpt lat="49.28592" lon="1.15558">
        <ele>67</ele>
        <time>2014-06-08T14:02:54Z</time>
      </trkpt>
      <trkpt lat="49.28602" lon="1.15559">
        <ele>66</ele>
        <time>2014-06-08T14:03:02Z</time>
      </trkpt>
      <trkpt lat="49.28603" lon="1.15559">
        <ele>66</ele>
        <time>2014-06-08T14:03:03Z</time>
      </trkpt>
      <trkpt lat="49.28607" lon="1.15561">
        <ele>66</ele>
        <time>2014-06-08T14:03:07Z</time>
      </trkpt>
      <trkpt lat="49.28615" lon="1.15563">
        <ele>66</ele>
        <time>2014-06-08T14:03:15Z</time>
      </trkpt>
      <trkpt lat="49.28631" lon="1.15574">
        <ele>66</ele>
        <time>2014-06-08T14:03:27Z</time>
      </trkpt>
      <trkpt lat="49.28643" lon="1.15577">
        <ele>66</ele>
        <time>2014-06-08T14:03:35Z</time>
      </trkpt>
      <trkpt lat="49.28648" lon="1.1558">
        <ele>65</ele>
        <time>2014-06-08T14:03:39Z</time>
      </trkpt>
      <trkpt lat="49.28657" lon="1.15583">
        <ele>65</ele>
        <time>2014-06-08T14:03:47Z</time>
      </trkpt>
      <trkpt lat="49.28658" lon="1.15584">
        <ele>65</ele>
        <time>2014-06-08T14:03:48Z</time>
      </trkpt>
      <trkpt lat="49.2866" lon="1.15584">
        <ele>65</ele>
        <time>2014-06-08T14:03:50Z</time>
      </trkpt>
      <trkpt lat="49.28665" lon="1.15589">
        <ele>65</ele>
        <time>2014-06-08T14:03:54Z</time>
      </trkpt>
      <trkpt lat="49.28677" lon="1.15593">
        <ele>65</ele>
        <time>2014-06-08T14:04:03Z</time>
      </trkpt>
      <trkpt lat="49.28689" lon="1.15597">
        <ele>64</ele>
        <time>2014-06-08T14:04:13Z</time>
      </trkpt>
      <trkpt lat="49.28704" lon="1.15605">
        <ele>64</ele>
        <time>2014-06-08T14:04:25Z</time>
      </trkpt>
      <trkpt lat="49.28717" lon="1.15609">
        <ele>64</ele>
        <time>2014-06-08T14:04:36Z</time>
      </trkpt>
      <trkpt lat="49.28726" lon="1.15617">
        <ele>64</ele>
        <time>2014-06-08T14:04:45Z</time>
      </trkpt>
      <trkpt lat="49.28733" lon="1.15624">
        <ele>64</ele>
        <time>2014-06-08T14:04:53Z</time>
      </trkpt>
      <trkpt lat="49.28742" lon="1.15631">
        <ele>63</ele>
        <time>2014-06-08T14:05:02Z</time>
      </trkpt>
      <trkpt lat="49.28747" lon="1.15633">
        <ele>63</ele>
        <time>2014-06-08T14:05:05Z</time>
      </trkpt>
      <trkpt lat="49.28758" lon="1.15639">
        <ele>62</ele>
        <time>2014-06-08T14:05:14Z</time>
      </trkpt>
      <trkpt lat="49.28768" lon="1.15643">
        <ele>62</ele>
        <time>2014-06-08T14:05:23Z</time>
      </trkpt>
      <trkpt lat="49.28782" lon="1.15647">
        <ele>62</ele>
        <time>2014-06-08T14:05:32Z</time>
      </trkpt>
      <trkpt lat="49.28788" lon="1.15648">
        <ele>62</ele>
        <time>2014-06-08T14:05:37Z</time>
      </trkpt>
      <trkpt lat="49.28791" lon="1.15648">
        <ele>62</ele>
        <time>2014-06-08T14:05:39Z</time>
      </trkpt>
      <trkpt lat="49.28802" lon="1.15651">
        <ele>61</ele>
        <time>2014-06-08T14:05:49Z</time>
      </trkpt>
      <trkpt lat="49.28804" lon="1.15652">
        <ele>61</ele>
        <time>2014-06-08T14:05:51Z</time>
      </trkpt>
      <trkpt lat="49.28806" lon="1.15652">
        <ele>61</ele>
        <time>2014-06-08T14:05:53Z</time>
      </trkpt>
      <trkpt lat="49.28819" lon="1.15659">
        <ele>61</ele>
        <time>2014-06-08T14:06:04Z</time>
      </trkpt>
      <trkpt lat="49.2883" lon="1.15665">
        <ele>61</ele>
        <time>2014-06-08T14:06:13Z</time>
      </trkpt>
      <trkpt lat="49.28845" lon="1.15671">
        <ele>61</ele>
        <time>2014-06-08T14:06:25Z</time>
      </trkpt>
      <trkpt lat="49.2885" lon="1.15675">
        <ele>60</ele>
        <time>2014-06-08T14:06:29Z</time>
      </trkpt>
      <trkpt lat="49.28858" lon="1.15676">
        <ele>60</ele>
        <time>2014-06-08T14:06:36Z</time>
      </trkpt>
      <trkpt lat="49.2887" lon="1.15681">
        <ele>59</ele>
        <time>2014-06-08T14:06:46Z</time>
      </trkpt>
      <trkpt lat="49.28874" lon="1.15683">
        <ele>59</ele>
        <time>2014-06-08T14:06:49Z</time>
      </trkpt>
      <trkpt lat="49.28876" lon="1.15684">
        <ele>59</ele>
        <time>2014-06-08T14:06:51Z</time>
      </trkpt>
      <trkpt lat="49.28879" lon="1.15685">
        <ele>59</ele>
        <time>2014-06-08T14:06:53Z</time>
      </trkpt>
      <trkpt lat="49.28889" lon="1.15695">
        <ele>59</ele>
        <time>2014-06-08T14:07:04Z</time>
      </trkpt>
      <trkpt lat="49.28896" lon="1.15697">
        <ele>59</ele>
        <time>2014-06-08T14:07:11Z</time>
      </trkpt>
      <trkpt lat="49.28909" lon="1.15708">
        <ele>59</ele>
        <time>2014-06-08T14:07:21Z</time>
      </trkpt>
      <trkpt lat="49.2892" lon="1.15712">
        <ele>60</ele>
        <time>2014-06-08T14:07:32Z</time>
      </trkpt>
      <trkpt lat="49.28924" lon="1.1572">
        <ele>60</ele>
        <time>2014-06-08T14:07:36Z</time>
      </trkpt>
      <trkpt lat="49.28926" lon="1.15725">
        <ele>60</ele>
        <time>2014-06-08T14:07:38Z</time>
      </trkpt>
      <trkpt lat="49.28939" lon="1.15744">
        <ele>60</ele>
        <time>2014-06-08T14:07:50Z</time>
      </trkpt>
      <trkpt lat="49.28939" lon="1.15751">
        <ele>60</ele>
        <time>2014-06-08T14:07:58Z</time>
      </trkpt>
      <trkpt lat="49.28937" lon="1.15767">
        <ele>60</ele>
        <time>2014-06-08T14:08:08Z</time>
      </trkpt>
      <trkpt lat="49.2893" lon="1.15795">
        <ele>60</ele>
        <time>2014-06-08T14:08:20Z</time>
      </trkpt>
      <trkpt lat="49.28929" lon="1.15816">
        <ele>60</ele>
        <time>2014-06-08T14:08:30Z</time>
      </trkpt>
      <trkpt lat="49.2893" lon="1.15827">
        <ele>60</ele>
        <time>2014-06-08T14:08:36Z</time>
      </trkpt>
      <trkpt lat="49.28928" lon="1.15836">
        <ele>60</ele>
        <time>2014-06-08T14:08:40Z</time>
      </trkpt>
      <trkpt lat="49.28923" lon="1.15853">
        <ele>61</ele>
        <time>2014-06-08T14:08:49Z</time>
      </trkpt>
      <trkpt lat="49.28921" lon="1.15854">
        <ele>61</ele>
        <time>2014-06-08T14:08:52Z</time>
      </trkpt>
    </trkseg>
  </trk>
</gpx>